Observation data for Hobbs on 06/25/2019      Previous  Date  Next       Current Mesonet Observations  Soil Data  Daily Summary Page  Observations in Plain Language
KHO1 250500Z 13013KT 23/17 A3002 RMK A01 T02320167  RH  067%=      5-min Rain = 0
KHO1 250501Z 14016G24KT 23/16 A3002 RMK A01 T02320163  RH  065%=      5-min Rain = 0
KHO1 250502Z 14019KT 23/16 A3002 RMK A01 T02320159  RH  063%=      5-min Rain = 0
KHO1 250503Z 14015KT 23/16 A3002 RMK A01 T02330161  RH  064%=      5-min Rain = 0
KHO1 250504Z 14014KT 23/16 A3002 RMK A01 T02320161  RH  064%=      5-min Rain = 0
KHO1 250505Z 15014G22KT 23/16 A3002 RMK A01 T02320157  RH  063%=      5-min Rain = 0
KHO1 250506Z 14018G24KT 23/14 A3002 RMK A01 T02320141  RH  056%=      5-min Rain = 0
KHO1 250507Z 14022G28KT 23/13 A3002 RMK A01 T02330133  RH  054%=      5-min Rain = 0
KHO1 250508Z 14020KT 23/13 A3002 RMK A01 T02330130  RH  052%=      5-min Rain = 0
KHO1 250509Z 14022KT 23/13 A3002 RMK A01 T02330125  RH  051%=      5-min Rain = 0
KHO1 250510Z 14021KT 23/12 A3002 RMK A01 T02320120  RH  049%=      5-min Rain = 0
KHO1 250511Z 14022KT 23/12 A3002 RMK A01 T02320120  RH  049%=      5-min Rain = 0
KHO1 250512Z 13017G22KT 23/12 A3002 RMK A01 T02320121  RH  050%=      5-min Rain = 0
KHO1 250513Z 13018G23KT 23/12 A3002 RMK A01 T02310118  RH  049%=      5-min Rain = 0
KHO1 250514Z 14017KT 23/12 A3002 RMK A01 T02300117  RH  049%=      5-min Rain = 0
KHO1 250515Z 14019KT 23/12 A3002 RMK A01 T02300116  RH  048%=      5-min Rain = 0
KHO1 250516Z 13017KT 23/12 A3002 RMK A01 T02300116  RH  049%=      5-min Rain = 0
KHO1 250517Z 13017KT 23/12 A3002 RMK A01 T02290115  RH  049%=      5-min Rain = 0
KHO1 250518Z 14017KT 23/12 A3002 RMK A01 T02290115  RH  049%=      5-min Rain = 0
KHO1 250519Z 13016KT 23/12 A3002 RMK A01 T02290115  RH  049%=      5-min Rain = 0
KHO1 250520Z 14016KT 23/11 A3002 RMK A01 T02290114  RH  048%=      5-min Rain = 0
KHO1 250521Z 14016KT 23/11 A3002 RMK A01 T02280113  RH  048%=      5-min Rain = 0
KHO1 250522Z 14015KT 23/11 A3002 RMK A01 T02280112  RH  048%=      5-min Rain = 0
KHO1 250523Z 13017G23KT 23/11 A3002 RMK A01 T02280112  RH  048%=      5-min Rain = 0
KHO1 250524Z 14015G20KT 23/11 A3002 RMK A01 T02280112  RH  048%=      5-min Rain = 0
KHO1 250525Z 13016KT 23/11 A3002 RMK A01 T02270112  RH  048%=      5-min Rain = 0
KHO1 250526Z 14014G19KT 23/11 A3002 RMK A01 T02270112  RH  048%=      5-min Rain = 0
KHO1 250527Z 14014KT 23/11 A3002 RMK A01 T02260112  RH  048%=      5-min Rain = 0
KHO1 250528Z 14011KT 23/11 A3002 RMK A01 T02260112  RH  049%=      5-min Rain = 0
KHO1 250529Z 14012KT 23/11 A3002 RMK A01 T02250112  RH  049%=      5-min Rain = 0
KHO1 250530Z 15009KT 23/11 A3002 RMK A01 T02250112  RH  049%=      5-min Rain = 0
KHO1 250531Z 15011KT 23/11 A3002 RMK A01 T02250112  RH  049%=      5-min Rain = 0
KHO1 250532Z 14014KT 23/11 A3002 RMK A01 T02250110  RH  048%=      5-min Rain = 0
KHO1 250533Z 14015KT 23/11 A3002 RMK A01 T02250108  RH  048%=      5-min Rain = 0
KHO1 250534Z 14016G21KT 23/11 A3002 RMK A01 T02260106  RH  047%=      5-min Rain = 0
KHO1 250535Z 14013KT 23/11 A3002 RMK A01 T02260106  RH  047%=      5-min Rain = 0
KHO1 250536Z 14014KT 23/11 A3002 RMK A01 T02260105  RH  047%=      5-min Rain = 0
KHO1 250537Z 14015G22KT 23/11 A3002 RMK A01 T02260106  RH  047%=      5-min Rain = 0
KHO1 250538Z 14016G22KT 23/11 A3002 RMK A01 T02260106  RH  047%=      5-min Rain = 0
KHO1 250539Z 14014KT 23/11 A3002 RMK A01 T02250106  RH  047%=      5-min Rain = 0
KHO1 250540Z 14014KT 23/11 A3002 RMK A01 T02250105  RH  046%=      5-min Rain = 0
KHO1 250541Z 14015KT 23/10 A3002 RMK A01 T02250104  RH  046%=      5-min Rain = 0
KHO1 250542Z 14012KT 23/11 A3002 RMK A01 T02250105  RH  047%=      5-min Rain = 0
KHO1 250543Z 14010KT 22/10 A3002 RMK A01 T02240104  RH  047%=      5-min Rain = 0
KHO1 250544Z 14012G18KT 22/10 A3002 RMK A01 T02230104  RH  047%=      5-min Rain = 0
KHO1 250545Z 14014KT 22/10 A3002 RMK A01 T02230102  RH  046%=      5-min Rain = 0
KHO1 250546Z 14014KT 22/10 A3002 RMK A01 T02240101  RH  046%=      5-min Rain = 0
KHO1 250547Z 14012KT 22/10 A3002 RMK A01 T02230101  RH  046%=      5-min Rain = 0
KHO1 250548Z 14013KT 22/10 A3002 RMK A01 T02230101  RH  046%=      5-min Rain = 0
KHO1 250549Z 15013KT 22/10 A3002 RMK A01 T02230099  RH  045%=      5-min Rain = 0
KHO1 250550Z 14010KT 22/10 A3002 RMK A01 T02230100  RH  045%=      5-min Rain = 0
KHO1 250551Z 14014KT 22/10 A3002 RMK A01 T02230099  RH  045%=      5-min Rain = 0
KHO1 250552Z 14012KT 22/10 A3002 RMK A01 T02230099  RH  045%=      5-min Rain = 0
KHO1 250553Z 15012KT 22/10 A3002 RMK A01 T02230098  RH  045%=      5-min Rain = 0
KHO1 250554Z 15012KT 22/10 A3002 RMK A01 T02230098  RH  045%=      5-min Rain = 0
KHO1 250555Z 14011KT 22/10 A3002 RMK A01 T02230097  RH  045%=      5-min Rain = 0
KHO1 250556Z 14010KT 22/10 A3002 RMK A01 T02220098  RH  045%=      5-min Rain = 0
KHO1 250557Z 14010KT 22/10 A3002 RMK A01 T02210097  RH  045%=      5-min Rain = 0
KHO1 250558Z 14013KT 22/10 A3002 RMK A01 T02210097  RH  045%=      5-min Rain = 0
KHO1 250559Z 14013KT 22/10 A3002 RMK A01 T02220096  RH  045%=      5-min Rain = 0
KHO1 250600Z 15012KT 22/10 A3002 RMK A01 T02220096  RH  045%=      5-min Rain = 0
KHO1 250601Z 14011KT 22/10 A3002 RMK A01 T02220095  RH  044%=      5-min Rain = 0
KHO1 250602Z 15011KT 22/10 A3002 RMK A01 T02210095  RH  045%=      5-min Rain = 0
KHO1 250603Z 15011KT 22/10 A3002 RMK A01 T02210095  RH  045%=      5-min Rain = 0
KHO1 250604Z 15011KT 22/09 A3002 RMK A01 T02210094  RH  044%=      5-min Rain = 0
KHO1 250605Z 15012KT 22/09 A3002 RMK A01 T02210094  RH  044%=      5-min Rain = 0
KHO1 250606Z 15013KT 22/09 A3002 RMK A01 T02210093  RH  044%=      5-min Rain = 0
KHO1 250607Z 14012KT 22/09 A3002 RMK A01 T02220093  RH  044%=      5-min Rain = 0
KHO1 250608Z 15011KT 22/09 A3002 RMK A01 T02220093  RH  044%=      5-min Rain = 0
KHO1 250609Z 15009KT 22/09 A3002 RMK A01 T02210093  RH  044%=      5-min Rain = 0
KHO1 250610Z 15011KT 22/09 A3002 RMK A01 T02210093  RH  044%=      5-min Rain = 0
KHO1 250611Z 15010KT 22/09 A3002 RMK A01 T02210092  RH  044%=      5-min Rain = 0
KHO1 250612Z 15008KT 22/09 A3002 RMK A01 T02210092  RH  044%=      5-min Rain = 0
KHO1 250613Z 15010KT 22/09 A3002 RMK A01 T02200092  RH  044%=      5-min Rain = 0
KHO1 250614Z 16012KT 22/09 A3002 RMK A01 T02200092  RH  044%=      5-min Rain = 0
KHO1 250615Z 16012KT 22/09 A3002 RMK A01 T02210091  RH  044%=      5-min Rain = 0
KHO1 250616Z 15012KT 22/09 A3002 RMK A01 T02210091  RH  043%=      5-min Rain = 0
KHO1 250617Z 16010KT 22/09 A3002 RMK A01 T02210091  RH  044%=      5-min Rain = 0
KHO1 250618Z 16009KT 22/09 A3002 RMK A01 T02200091  RH  044%=      5-min Rain = 0
KHO1 250619Z 16008KT 22/09 A3002 RMK A01 T02200091  RH  044%=      5-min Rain = 0
KHO1 250620Z 16009KT 22/09 A3002 RMK A01 T02190090  RH  044%=      5-min Rain = 0
KHO1 250621Z 16008KT 22/09 A3002 RMK A01 T02190090  RH  044%=      5-min Rain = 0
KHO1 250622Z 16009KT 22/09 A3002 RMK A01 T02190090  RH  044%=      5-min Rain = 0
KHO1 250623Z 16009KT 22/09 A3002 RMK A01 T02180090  RH  044%=      5-min Rain = 0
KHO1 250624Z 16008KT 22/09 A3002 RMK A01 T02180090  RH  044%=      5-min Rain = 0
KHO1 250625Z 16009KT 22/09 A3002 RMK A01 T02180090  RH  044%=      5-min Rain = 0
KHO1 250626Z 16008KT 22/09 A3002 RMK A01 T02180090  RH  044%=      5-min Rain = 0
KHO1 250627Z 16008KT 22/09 A3001 RMK A01 T02170090  RH  044%=      5-min Rain = 0
KHO1 250628Z 16008KT 22/09 A3001 RMK A01 T02170090  RH  044%=      5-min Rain = 0
KHO1 250629Z 16008KT 22/09 A3001 RMK A01 T02170090  RH  044%=      5-min Rain = 0
KHO1 250630Z 16008KT 22/09 A3002 RMK A01 T02170090  RH  044%=      5-min Rain = 0
KHO1 250631Z 16008KT 22/09 A3001 RMK A01 T02160090  RH  045%=      5-min Rain = 0
KHO1 250632Z 16008KT 22/09 A3001 RMK A01 T02160092  RH  045%=      5-min Rain = 0
KHO1 250633Z 17009KT 22/09 A3001 RMK A01 T02170093  RH  045%=      5-min Rain = 0
KHO1 250634Z 17009KT 22/09 A3001 RMK A01 T02170094  RH  045%=      5-min Rain = 0
KHO1 250635Z 18009KT 22/10 A3001 RMK A01 T02180095  RH  046%=      5-min Rain = 0
KHO1 250636Z 17009KT 22/10 A3001 RMK A01 T02180095  RH  045%=      5-min Rain = 0
KHO1 250637Z 17007KT 22/10 A3001 RMK A01 T02180095  RH  046%=      5-min Rain = 0
KHO1 250638Z 17008KT 22/10 A3001 RMK A01 T02180097  RH  046%=      5-min Rain = 0
KHO1 250639Z 17008KT 22/10 A3001 RMK A01 T02180096  RH  046%=      5-min Rain = 0
KHO1 250640Z 17008KT 22/10 A3001 RMK A01 T02170096  RH  046%=      5-min Rain = 0
KHO1 250641Z 17008KT 22/10 A3001 RMK A01 T02170095  RH  046%=      5-min Rain = 0
KHO1 250642Z 17009KT 22/10 A3001 RMK A01 T02170095  RH  046%=      5-min Rain = 0
KHO1 250643Z 17008KT 22/10 A3001 RMK A01 T02160095  RH  046%=      5-min Rain = 0
KHO1 250644Z 18007KT 22/10 A3001 RMK A01 T02160095  RH  046%=      5-min Rain = 0
KHO1 250645Z 17007KT 22/10 A3001 RMK A01 T02150095  RH  046%=      5-min Rain = 0
KHO1 250646Z 17008KT 22/10 A3001 RMK A01 T02150096  RH  047%=      5-min Rain = 0
KHO1 250647Z 18007KT 22/10 A3001 RMK A01 T02150096  RH  047%=      5-min Rain = 0
KHO1 250648Z 18008KT 22/10 A3001 RMK A01 T02150097  RH  047%=      5-min Rain = 0
KHO1 250649Z 18009KT 22/10 A3001 RMK A01 T02160098  RH  047%=      5-min Rain = 0
KHO1 250650Z 18009KT 22/10 A3001 RMK A01 T02160098  RH  047%=      5-min Rain = 0
KHO1 250651Z 18009KT 22/10 A3001 RMK A01 T02150098  RH  047%=      5-min Rain = 0
KHO1 250652Z 18009KT 22/10 A3001 RMK A01 T02150099  RH  047%=      5-min Rain = 0
KHO1 250653Z 18009KT 22/10 A3001 RMK A01 T02150099  RH  048%=      5-min Rain = 0
KHO1 250654Z 18009KT 22/10 A3001 RMK A01 T02150101  RH  048%=      5-min Rain = 0
KHO1 250655Z 18008KT 22/10 A3001 RMK A01 T02150101  RH  048%=      5-min Rain = 0
KHO1 250656Z 19010KT 22/10 A3001 RMK A01 T02150102  RH  049%=      5-min Rain = 0
KHO1 250657Z 18011KT 22/11 A3001 RMK A01 T02160107  RH  050%=      5-min Rain = 0
KHO1 250658Z 19009KT 22/11 A3001 RMK A01 T02170107  RH  049%=      5-min Rain = 0
KHO1 250659Z 18008KT 22/11 A3001 RMK A01 T02170107  RH  049%=      5-min Rain = 0
KHO1 250700Z 19009KT 22/11 A3001 RMK A01 T02170107  RH  050%=      5-min Rain = 0
KHO1 250701Z 18008KT 22/11 A3001 RMK A01 T02170110  RH  051%=      5-min Rain = 0
KHO1 250702Z 18009KT 22/11 A3001 RMK A01 T02170113  RH  051%=      5-min Rain = 0
KHO1 250703Z 18009KT 22/12 A3001 RMK A01 T02170116  RH  052%=      5-min Rain = 0
KHO1 250704Z 18008KT 22/12 A3001 RMK A01 T02180116  RH  052%=      5-min Rain = 0
KHO1 250705Z 18009KT 22/12 A3001 RMK A01 T02180118  RH  053%=      5-min Rain = 0
KHO1 250706Z 18009KT 22/12 A3001 RMK A01 T02190120  RH  053%=      5-min Rain = 0
KHO1 250707Z 18010KT 22/12 A3001 RMK A01 T02190121  RH  054%=      5-min Rain = 0
KHO1 250708Z 18010KT 22/12 A3001 RMK A01 T02190122  RH  054%=      5-min Rain = 0
KHO1 250709Z 18008KT 22/12 A3001 RMK A01 T02190123  RH  054%=      5-min Rain = 0
KHO1 250710Z 18008KT 22/12 A3001 RMK A01 T02190124  RH  055%=      5-min Rain = 0
KHO1 250711Z 19008KT 22/13 A3001 RMK A01 T02190125  RH  055%=      5-min Rain = 0
KHO1 250712Z 18008KT 22/13 A3001 RMK A01 T02190125  RH  055%=      5-min Rain = 0
KHO1 250713Z 19009KT 22/13 A3001 RMK A01 T02190126  RH  056%=      5-min Rain = 0
KHO1 250714Z 19008KT 22/13 A3001 RMK A01 T02190127  RH  056%=      5-min Rain = 0
KHO1 250715Z 19009KT 22/13 A3001 RMK A01 T02190128  RH  056%=      5-min Rain = 0
KHO1 250716Z 19010KT 22/13 A3001 RMK A01 T02190130  RH  057%=      5-min Rain = 0
KHO1 250717Z 19008KT 22/13 A3001 RMK A01 T02190130  RH  057%=      5-min Rain = 0
KHO1 250718Z 19009KT 22/13 A3001 RMK A01 T02190131  RH  057%=      5-min Rain = 0
KHO1 250719Z 19008KT 22/13 A3001 RMK A01 T02200132  RH  057%=      5-min Rain = 0
KHO1 250720Z 19009KT 22/13 A3001 RMK A01 T02200132  RH  058%=      5-min Rain = 0
KHO1 250721Z 19010KT 22/13 A3001 RMK A01 T02200134  RH  058%=      5-min Rain = 0
KHO1 250722Z 19010KT 22/13 A3001 RMK A01 T02210134  RH  058%=      5-min Rain = 0
KHO1 250723Z 19010KT 22/14 A3001 RMK A01 T02210135  RH  058%=      5-min Rain = 0
KHO1 250724Z 19009KT 22/14 A3001 RMK A01 T02210135  RH  058%=      5-min Rain = 0
KHO1 250725Z 19010KT 22/14 A3001 RMK A01 T02210135  RH  058%=      5-min Rain = 0
KHO1 250726Z 19010KT 22/14 A3001 RMK A01 T02210136  RH  058%=      5-min Rain = 0
KHO1 250727Z 19010KT 22/14 A3001 RMK A01 T02210136  RH  059%=      5-min Rain = 0
KHO1 250728Z 19011KT 22/14 A3001 RMK A01 T02210137  RH  059%=      5-min Rain = 0
KHO1 250729Z 19011KT 22/14 A3001 RMK A01 T02220137  RH  059%=      5-min Rain = 0
KHO1 250730Z 19010KT 22/14 A3001 RMK A01 T02220137  RH  058%=      5-min Rain = 0
KHO1 250731Z 18013KT 22/14 A3001 RMK A01 T02230137  RH  058%=      5-min Rain = 0
KHO1 250732Z 18012KT 22/14 A3001 RMK A01 T02230137  RH  058%=      5-min Rain = 0
KHO1 250733Z 19012KT 22/14 A3001 RMK A01 T02240137  RH  058%=      5-min Rain = 0
KHO1 250734Z 19011KT 23/14 A3001 RMK A01 T02250137  RH  058%=      5-min Rain = 0
KHO1 250735Z 19011G16KT 22/14 A3001 RMK A01 T02240137  RH  058%=      5-min Rain = 0
KHO1 250736Z 19012KT 23/14 A3001 RMK A01 T02250137  RH  058%=      5-min Rain = 0
KHO1 250737Z 19010KT 23/14 A3001 RMK A01 T02250137  RH  057%=      5-min Rain = 0
KHO1 250738Z 19010KT 22/14 A3001 RMK A01 T02240137  RH  058%=      5-min Rain = 0
KHO1 250739Z 19011KT 22/14 A3001 RMK A01 T02240137  RH  058%=      5-min Rain = 0
KHO1 250740Z 19013KT 22/14 A3001 RMK A01 T02240137  RH  058%=      5-min Rain = 0
KHO1 250741Z 18010KT 23/14 A3001 RMK A01 T02250136  RH  057%=      5-min Rain = 0
KHO1 250742Z 19011KT 23/14 A3001 RMK A01 T02250136  RH  057%=      5-min Rain = 0
KHO1 250743Z 19012KT 23/14 A3001 RMK A01 T02250136  RH  057%=      5-min Rain = 0
KHO1 250744Z 18014KT 23/14 A3001 RMK A01 T02260135  RH  056%=      5-min Rain = 0
KHO1 250745Z 19014KT 23/13 A3001 RMK A01 T02260134  RH  056%=      5-min Rain = 0
KHO1 250746Z 19015KT 23/13 A3001 RMK A01 T02270134  RH  056%=      5-min Rain = 0
KHO1 250747Z 19012KT 23/13 A3001 RMK A01 T02270133  RH  055%=      5-min Rain = 0
KHO1 250748Z 18014KT 23/13 A3001 RMK A01 T02270133  RH  055%=      5-min Rain = 0
KHO1 250749Z 19010KT 23/13 A3001 RMK A01 T02270132  RH  055%=      5-min Rain = 0
KHO1 250750Z 18014KT 23/13 A3001 RMK A01 T02270132  RH  055%=      5-min Rain = 0
KHO1 250751Z 19013KT 23/13 A3001 RMK A01 T02270131  RH  055%=      5-min Rain = 0
KHO1 250752Z 18016KT 23/13 A3001 RMK A01 T02270130  RH  054%=      5-min Rain = 0
KHO1 250753Z 18015KT 23/13 A3001 RMK A01 T02280129  RH  054%=      5-min Rain = 0
KHO1 250754Z 18016KT 23/13 A3001 RMK A01 T02280128  RH  053%=      5-min Rain = 0
KHO1 250755Z 18017KT 23/13 A3001 RMK A01 T02280127  RH  053%=      5-min Rain = 0
KHO1 250756Z 18016KT 23/13 A3001 RMK A01 T02280127  RH  053%=      5-min Rain = 0
KHO1 250757Z 17015KT 23/13 A3001 RMK A01 T02280126  RH  053%=      5-min Rain = 0
KHO1 250758Z 18014KT 23/13 A3001 RMK A01 T02280126  RH  053%=      5-min Rain = 0
KHO1 250759Z 18012KT 23/13 A3001 RMK A01 T02270126  RH  053%=      5-min Rain = 0
KHO1 250800Z 18013KT 23/13 A3001 RMK A01 T02270126  RH  053%=      5-min Rain = 0
KHO1 250801Z 17014KT 23/13 A3001 RMK A01 T02270126  RH  053%=      5-min Rain = 0
KHO1 250802Z 18012KT 23/13 A3001 RMK A01 T02260126  RH  053%=      5-min Rain = 0
KHO1 250803Z 18012KT 23/13 A3001 RMK A01 T02260126  RH  053%=      5-min Rain = 0
KHO1 250804Z 18010KT 23/13 A3001 RMK A01 T02250126  RH  053%=      5-min Rain = 0
KHO1 250805Z 18009KT 23/13 A3001 RMK A01 T02250125  RH  053%=      5-min Rain = 0
KHO1 250806Z 18012KT 22/13 A3001 RMK A01 T02240125  RH  054%=      5-min Rain = 0
KHO1 250807Z 18011KT 23/13 A3001 RMK A01 T02250126  RH  053%=      5-min Rain = 0
KHO1 250808Z 19010KT 23/13 A3001 RMK A01 T02250126  RH  053%=      5-min Rain = 0
KHO1 250809Z 18013KT 23/13 A3001 RMK A01 T02250126  RH  053%=      5-min Rain = 0
KHO1 250810Z 18011KT 23/13 A3001 RMK A01 T02250126  RH  053%=      5-min Rain = 0
KHO1 250811Z 18011KT 22/13 A3001 RMK A01 T02240125  RH  053%=      5-min Rain = 0
KHO1 250812Z 18011KT 22/13 A3001 RMK A01 T02240125  RH  053%=      5-min Rain = 0
KHO1 250813Z 18010KT 22/13 A3001 RMK A01 T02230125  RH  054%=      5-min Rain = 0
KHO1 250814Z 18010KT 22/13 A3001 RMK A01 T02230125  RH  054%=      5-min Rain = 0
KHO1 250815Z 18011KT 22/13 A3001 RMK A01 T02230125  RH  054%=      5-min Rain = 0
KHO1 250816Z 17011KT 22/13 A3001 RMK A01 T02230125  RH  054%=      5-min Rain = 0
KHO1 250817Z 18010KT 22/13 A3001 RMK A01 T02220125  RH  054%=      5-min Rain = 0
KHO1 250818Z 17012KT 22/13 A3001 RMK A01 T02220125  RH  054%=      5-min Rain = 0
KHO1 250819Z 17012KT 22/13 A3001 RMK A01 T02220125  RH  054%=      5-min Rain = 0
KHO1 250820Z 16011KT 22/13 A3001 RMK A01 T02220125  RH  054%=      5-min Rain = 0
KHO1 250821Z 16012KT 22/13 A3002 RMK A01 T02220125  RH  054%=      5-min Rain = 0
KHO1 250822Z 16013KT 22/13 A3002 RMK A01 T02220125  RH  054%=      5-min Rain = 0
KHO1 250823Z 16014KT 22/13 A3002 RMK A01 T02220125  RH  054%=      5-min Rain = 0
KHO1 250824Z 16012KT 22/12 A3002 RMK A01 T02220124  RH  054%=      5-min Rain = 0
KHO1 250825Z 16011KT 22/12 A3002 RMK A01 T02210124  RH  054%=      5-min Rain = 0
KHO1 250826Z 16012KT 22/12 A3002 RMK A01 T02200124  RH  054%=      5-min Rain = 0
KHO1 250827Z 16012G18KT 22/12 A3002 RMK A01 T02200124  RH  054%=      5-min Rain = 0
KHO1 250828Z 16013G18KT 22/12 A3002 RMK A01 T02200124  RH  054%=      5-min Rain = 0
KHO1 250829Z 16013KT 22/12 A3001 RMK A01 T02210124  RH  054%=      5-min Rain = 0
KHO1 250830Z 17012KT 22/12 A3001 RMK A01 T02200124  RH  054%=      5-min Rain = 0
KHO1 250831Z 17012KT 22/12 A3001 RMK A01 T02200124  RH  054%=      5-min Rain = 0
KHO1 250832Z 17013KT 22/12 A3002 RMK A01 T02200123  RH  054%=      5-min Rain = 0
KHO1 250833Z 16012KT 22/12 A3002 RMK A01 T02190123  RH  054%=      5-min Rain = 0
KHO1 250834Z 16013KT 22/12 A3002 RMK A01 T02190123  RH  054%=      5-min Rain = 0
KHO1 250835Z 17015KT 22/12 A3002 RMK A01 T02190123  RH  054%=      5-min Rain = 0
KHO1 250836Z 17015KT 22/12 A3002 RMK A01 T02200123  RH  054%=      5-min Rain = 0
KHO1 250837Z 17015KT 22/12 A3002 RMK A01 T02200123  RH  054%=      5-min Rain = 0
KHO1 250838Z 16014KT 22/12 A3002 RMK A01 T02190123  RH  054%=      5-min Rain = 0
KHO1 250839Z 16013KT 22/12 A3002 RMK A01 T02190123  RH  054%=      5-min Rain = 0
KHO1 250840Z 16018G24KT 22/12 A3002 RMK A01 T02190123  RH  054%=      5-min Rain = 0
KHO1 250841Z 16019KT 22/12 A3002 RMK A01 T02200123  RH  054%=      5-min Rain = 0
KHO1 250842Z 16015KT 22/12 A3002 RMK A01 T02190122  RH  054%=      5-min Rain = 0
KHO1 250843Z 16021KT 22/12 A3002 RMK A01 T02190122  RH  054%=      5-min Rain = 0
KHO1 250844Z 17021G26KT 22/12 A3002 RMK A01 T02190122  RH  054%=      5-min Rain = 0
KHO1 250845Z 17023KT 22/12 A3002 RMK A01 T02190122  RH  054%=      5-min Rain = 0
KHO1 250846Z 17022KT 22/12 A3002 RMK A01 T02190122  RH  054%=      5-min Rain = 0
KHO1 250847Z 17019KT 22/12 A3002 RMK A01 T02180122  RH  054%=      5-min Rain = 0
KHO1 250848Z 17018KT 22/12 A3002 RMK A01 T02170122  RH  055%=      5-min Rain = 0
KHO1 250849Z 17022G27KT 22/12 A3002 RMK A01 T02170122  RH  055%=      5-min Rain = 0
KHO1 250850Z 17022KT 22/12 A3002 RMK A01 T02170122  RH  055%=      5-min Rain = 0
KHO1 250851Z 17022KT 22/12 A3002 RMK A01 T02160122  RH  055%=      5-min Rain = 0
KHO1 250852Z 17020KT 22/12 A3002 RMK A01 T02160122  RH  055%=      5-min Rain = 0
KHO1 250853Z 16017KT 22/12 A3002 RMK A01 T02150122  RH  055%=      5-min Rain = 0
KHO1 250854Z 16019G24KT 22/12 A3002 RMK A01 T02150122  RH  056%=      5-min Rain = 0
KHO1 250855Z 16021KT 21/12 A3002 RMK A01 T02140122  RH  056%=      5-min Rain = 0
KHO1 250856Z 16019KT 21/12 A3002 RMK A01 T02140123  RH  056%=      5-min Rain = 0
KHO1 250857Z 17021KT 21/12 A3002 RMK A01 T02140122  RH  056%=      5-min Rain = 0
KHO1 250858Z 16020KT 21/12 A3002 RMK A01 T02140122  RH  056%=      5-min Rain = 0
KHO1 250859Z 16020KT 21/12 A3002 RMK A01 T02130123  RH  056%=      5-min Rain = 0
KHO1 250900Z 17019KT 21/12 A3002 RMK A01 T02130123  RH  057%=      5-min Rain = 0
KHO1 250901Z 17019KT 21/12 A3002 RMK A01 T02120123  RH  057%=      5-min Rain = 0
KHO1 250902Z 16019KT 21/12 A3002 RMK A01 T02120123  RH  057%=      5-min Rain = 0
KHO1 250903Z 16015KT 21/12 A3002 RMK A01 T02110123  RH  057%=      5-min Rain = 0
KHO1 250904Z 16015KT 21/12 A3003 RMK A01 T02100123  RH  057%=      5-min Rain = 0
KHO1 250905Z 16015KT 21/12 A3003 RMK A01 T02100123  RH  057%=      5-min Rain = 0
KHO1 250906Z 17013KT 21/12 A3003 RMK A01 T02100123  RH  058%=      5-min Rain = 0
KHO1 250907Z 17015KT 21/12 A3003 RMK A01 T02100124  RH  058%=      5-min Rain = 0
KHO1 250908Z 17013KT 21/12 A3003 RMK A01 T02090124  RH  058%=      5-min Rain = 0
KHO1 250909Z 17012KT 21/12 A3003 RMK A01 T02090124  RH  058%=      5-min Rain = 0
KHO1 250910Z 17015KT 21/12 A3002 RMK A01 T02080124  RH  059%=      5-min Rain = 0
KHO1 250911Z 17015KT 21/12 A3003 RMK A01 T02080124  RH  059%=      5-min Rain = 0
KHO1 250912Z 17013KT 21/12 A3002 RMK A01 T02080124  RH  059%=      5-min Rain = 0
KHO1 250913Z 17013KT 21/12 A3002 RMK A01 T02070124  RH  059%=      5-min Rain = 0
KHO1 250914Z 17011KT 21/12 A3002 RMK A01 T02070124  RH  059%=      5-min Rain = 0
KHO1 250915Z 17011KT 21/12 A3002 RMK A01 T02060124  RH  059%=      5-min Rain = 0
KHO1 250916Z 17010KT 21/12 A3002 RMK A01 T02060124  RH  059%=      5-min Rain = 0
KHO1 250917Z 17010KT 21/12 A3002 RMK A01 T02050124  RH  060%=      5-min Rain = 0
KHO1 250918Z 16010KT 21/12 A3002 RMK A01 T02050124  RH  060%=      5-min Rain = 0
KHO1 250919Z 17009KT 20/12 A3002 RMK A01 T02040124  RH  060%=      5-min Rain = 0
KHO1 250920Z 16011KT 20/12 A3002 RMK A01 T02040124  RH  060%=      5-min Rain = 0
KHO1 250921Z 17012KT 20/12 A3002 RMK A01 T02030124  RH  060%=      5-min Rain = 0
KHO1 250922Z 17012KT 20/13 A3002 RMK A01 T02030125  RH  060%=      5-min Rain = 0
KHO1 250923Z 17012KT 20/13 A3002 RMK A01 T02030125  RH  061%=      5-min Rain = 0
KHO1 250924Z 17011KT 20/13 A3002 RMK A01 T02030125  RH  061%=      5-min Rain = 0
KHO1 250925Z 17009KT 20/13 A3002 RMK A01 T02030125  RH  061%=      5-min Rain = 0
KHO1 250926Z 17009KT 20/12 A3003 RMK A01 T02020124  RH  061%=      5-min Rain = 0
KHO1 250927Z 17008KT 20/13 A3002 RMK A01 T02020125  RH  061%=      5-min Rain = 0
KHO1 250928Z 18009KT 20/13 A3002 RMK A01 T02020125  RH  061%=      5-min Rain = 0
KHO1 250929Z 17008KT 20/13 A3002 RMK A01 T02020125  RH  061%=      5-min Rain = 0
KHO1 250930Z 18007KT 20/13 A3002 RMK A01 T02010125  RH  061%=      5-min Rain = 0
KHO1 250931Z 18006KT 20/12 A3002 RMK A01 T02010124  RH  061%=      5-min Rain = 0
KHO1 250932Z 17006KT 20/12 A3002 RMK A01 T02000124  RH  062%=      5-min Rain = 0
KHO1 250933Z 17007KT 20/12 A3002 RMK A01 T01990124  RH  062%=      5-min Rain = 0
KHO1 250934Z 17008KT 20/12 A3002 RMK A01 T01990124  RH  062%=      5-min Rain = 0
KHO1 250935Z 17006KT 20/12 A3002 RMK A01 T01990124  RH  062%=      5-min Rain = 0
KHO1 250936Z 18006KT 20/12 A3002 RMK A01 T01990124  RH  062%=      5-min Rain = 0
KHO1 250937Z 17006KT 20/12 A3002 RMK A01 T01980124  RH  062%=      5-min Rain = 0
KHO1 250938Z 17007KT 20/12 A3002 RMK A01 T01980124  RH  062%=      5-min Rain = 0
KHO1 250939Z 17007KT 20/12 A3002 RMK A01 T01980124  RH  062%=      5-min Rain = 0
KHO1 250940Z 17010KT 20/12 A3002 RMK A01 T01980124  RH  062%=      5-min Rain = 0
KHO1 250941Z 17008KT 20/12 A3003 RMK A01 T01990124  RH  062%=      5-min Rain = 0
KHO1 250942Z 17007KT 20/12 A3003 RMK A01 T01990124  RH  062%=      5-min Rain = 0
KHO1 250943Z 17006KT 20/12 A3003 RMK A01 T01980123  RH  062%=      5-min Rain = 0
KHO1 250944Z 17007KT 20/12 A3003 RMK A01 T01980123  RH  062%=      5-min Rain = 0
KHO1 250945Z 17008KT 20/12 A3003 RMK A01 T01970123  RH  062%=      5-min Rain = 0
KHO1 250946Z 17008KT 20/12 A3003 RMK A01 T01970123  RH  062%=      5-min Rain = 0
KHO1 250947Z 17008KT 20/12 A3003 RMK A01 T01970122  RH  062%=      5-min Rain = 0
KHO1 250948Z 18009KT 20/12 A3003 RMK A01 T01970122  RH  062%=      5-min Rain = 0
KHO1 250949Z 18009KT 20/12 A3002 RMK A01 T01970122  RH  062%=      5-min Rain = 0
KHO1 250950Z 18008KT 20/12 A3002 RMK A01 T01970121  RH  061%=      5-min Rain = 0
KHO1 250951Z 18009KT 20/12 A3002 RMK A01 T01970121  RH  062%=      5-min Rain = 0
KHO1 250952Z 18009KT 20/12 A3002 RMK A01 T01970120  RH  061%=      5-min Rain = 0
KHO1 250953Z 18008KT 20/12 A3002 RMK A01 T01970120  RH  061%=      5-min Rain = 0
KHO1 250954Z 18009KT 20/12 A3002 RMK A01 T01960120  RH  061%=      5-min Rain = 0
KHO1 250955Z 18010KT 20/12 A3002 RMK A01 T01970119  RH  061%=      5-min Rain = 0
KHO1 250956Z 18008KT 20/12 A3002 RMK A01 T01970119  RH  061%=      5-min Rain = 0
KHO1 250957Z 18010KT 20/12 A3002 RMK A01 T01970119  RH  061%=      5-min Rain = 0
KHO1 250958Z 18010KT 20/12 A3002 RMK A01 T01970119  RH  061%=      5-min Rain = 0
KHO1 250959Z 17009KT 20/12 A3002 RMK A01 T01970118  RH  060%=      5-min Rain = 0
KHO1 251000Z 17009KT 20/12 A3002 RMK A01 T01960118  RH  060%=      5-min Rain = 0
KHO1 251001Z 17008KT 20/12 A3002 RMK A01 T01960118  RH  060%=      5-min Rain = 0
KHO1 251002Z 18009KT 20/12 A3003 RMK A01 T01960117  RH  060%=      5-min Rain = 0
KHO1 251003Z 17008KT 20/12 A3003 RMK A01 T01960117  RH  061%=      5-min Rain = 0
KHO1 251004Z 17007KT 20/12 A3003 RMK A01 T01950117  RH  061%=      5-min Rain = 0
KHO1 251005Z 18007KT 20/12 A3003 RMK A01 T01950117  RH  061%=      5-min Rain = 0
KHO1 251006Z 18008KT 19/12 A3002 RMK A01 T01940117  RH  061%=      5-min Rain = 0
KHO1 251007Z 18007KT 19/12 A3002 RMK A01 T01940117  RH  061%=      5-min Rain = 0
KHO1 251008Z 18009KT 19/12 A3003 RMK A01 T01940117  RH  061%=      5-min Rain = 0
KHO1 251009Z 19009KT 19/12 A3003 RMK A01 T01940117  RH  061%=      5-min Rain = 0
KHO1 251010Z 19009KT 19/12 A3002 RMK A01 T01940117  RH  061%=      5-min Rain = 0
KHO1 251011Z 19008KT 19/12 A3002 RMK A01 T01940116  RH  061%=      5-min Rain = 0
KHO1 251012Z 19009KT 19/12 A3002 RMK A01 T01940116  RH  061%=      5-min Rain = 0
KHO1 251013Z 19009KT 19/12 A3002 RMK A01 T01940116  RH  061%=      5-min Rain = 0
KHO1 251014Z 19009KT 19/12 A3002 RMK A01 T01940116  RH  061%=      5-min Rain = 0
KHO1 251015Z 19008KT 19/12 A3002 RMK A01 T01940116  RH  061%=      5-min Rain = 0
KHO1 251016Z 19009KT 19/12 A3002 RMK A01 T01940116  RH  061%=      5-min Rain = 0
KHO1 251017Z 19009KT 19/12 A3002 RMK A01 T01940116  RH  061%=      5-min Rain = 0
KHO1 251018Z 18010KT 19/12 A3002 RMK A01 T01940115  RH  061%=      5-min Rain = 0
KHO1 251019Z 18011KT 19/12 A3002 RMK A01 T01940115  RH  060%=      5-min Rain = 0
KHO1 251020Z 18010KT 19/12 A3002 RMK A01 T01940115  RH  060%=      5-min Rain = 0
KHO1 251021Z 18010KT 19/12 A3002 RMK A01 T01940115  RH  060%=      5-min Rain = 0
KHO1 251022Z 18009KT 19/12 A3002 RMK A01 T01940115  RH  060%=      5-min Rain = 0
KHO1 251023Z 18008KT 19/12 A3002 RMK A01 T01930115  RH  060%=      5-min Rain = 0
KHO1 251024Z 18009KT 19/12 A3002 RMK A01 T01930115  RH  061%=      5-min Rain = 0
KHO1 251025Z 18008KT 19/12 A3002 RMK A01 T01930115  RH  061%=      5-min Rain = 0
KHO1 251026Z 18009KT 19/12 A3002 RMK A01 T01930115  RH  061%=      5-min Rain = 0
KHO1 251027Z 18009KT 19/12 A3002 RMK A01 T01920115  RH  061%=      5-min Rain = 0
KHO1 251028Z 18009KT 19/12 A3003 RMK A01 T01920115  RH  061%=      5-min Rain = 0
KHO1 251029Z 18008KT 19/12 A3003 RMK A01 T01920115  RH  061%=      5-min Rain = 0
KHO1 251030Z 18007KT 19/12 A3002 RMK A01 T01920115  RH  061%=      5-min Rain = 0
KHO1 251031Z 19008KT 19/12 A3003 RMK A01 T01910115  RH  061%=      5-min Rain = 0
KHO1 251032Z 18008KT 19/12 A3003 RMK A01 T01910115  RH  061%=      5-min Rain = 0
KHO1 251033Z 18007KT 19/12 A3003 RMK A01 T01910115  RH  061%=      5-min Rain = 0
KHO1 251034Z 19007KT 19/12 A3003 RMK A01 T01910115  RH  061%=      5-min Rain = 0
KHO1 251035Z 18007KT 19/12 A3003 RMK A01 T01910115  RH  061%=      5-min Rain = 0
KHO1 251036Z 19007KT 19/12 A3003 RMK A01 T01910115  RH  061%=      5-min Rain = 0
KHO1 251037Z 18007KT 19/12 A3003 RMK A01 T01900115  RH  062%=      5-min Rain = 0
KHO1 251038Z 19006KT 19/12 A3003 RMK A01 T01900115  RH  062%=      5-min Rain = 0
KHO1 251039Z 19005KT 19/12 A3003 RMK A01 T01900115  RH  062%=      5-min Rain = 0
KHO1 251040Z 19005KT 19/12 A3003 RMK A01 T01890115  RH  062%=      5-min Rain = 0
KHO1 251041Z 19006KT 19/12 A3003 RMK A01 T01880115  RH  062%=      5-min Rain = 0
KHO1 251042Z 19006KT 19/12 A3003 RMK A01 T01880115  RH  063%=      5-min Rain = 0
KHO1 251043Z 19005KT 19/12 A3003 RMK A01 T01880115  RH  063%=      5-min Rain = 0
KHO1 251044Z 18006KT 19/12 A3003 RMK A01 T01870115  RH  063%=      5-min Rain = 0
KHO1 251045Z 18007KT 19/12 A3003 RMK A01 T01870116  RH  063%=      5-min Rain = 0
KHO1 251046Z 18006KT 19/12 A3003 RMK A01 T01880117  RH  063%=      5-min Rain = 0
KHO1 251047Z 17005KT 19/12 A3003 RMK A01 T01870116  RH  063%=      5-min Rain = 0
KHO1 251048Z 18006KT 19/12 A3003 RMK A01 T01870117  RH  064%=      5-min Rain = 0
KHO1 251049Z 17006KT 19/12 A3003 RMK A01 T01870117  RH  064%=      5-min Rain = 0
KHO1 251050Z 18007KT 19/12 A3003 RMK A01 T01870117  RH  064%=      5-min Rain = 0
KHO1 251051Z 18006KT 19/12 A3003 RMK A01 T01870117  RH  064%=      5-min Rain = 0
KHO1 251052Z 18006KT 19/12 A3003 RMK A01 T01860117  RH  064%=      5-min Rain = 0
KHO1 251053Z 18006KT 19/12 A3003 RMK A01 T01860117  RH  064%=      5-min Rain = 0
KHO1 251054Z 18005KT 19/12 A3003 RMK A01 T01850117  RH  064%=      5-min Rain = 0
KHO1 251055Z 18005KT 18/12 A3003 RMK A01 T01840117  RH  065%=      5-min Rain = 0
KHO1 251056Z 18005KT 18/12 A3003 RMK A01 T01830117  RH  065%=      5-min Rain = 0
KHO1 251057Z 18006KT 18/12 A3003 RMK A01 T01830117  RH  065%=      5-min Rain = 0
KHO1 251058Z 18006KT 18/12 A3003 RMK A01 T01820117  RH  066%=      5-min Rain = 0
KHO1 251059Z 18007KT 18/12 A3003 RMK A01 T01830118  RH  066%=      5-min Rain = 0
KHO1 251100Z 18006KT 18/12 A3003 RMK A01 T01820118  RH  066%=      5-min Rain = 0
KHO1 251101Z 18005KT 18/12 A3003 RMK A01 T01820118  RH  066%=      5-min Rain = 0
KHO1 251102Z 18005KT 18/12 A3003 RMK A01 T01820118  RH  066%=      5-min Rain = 0
KHO1 251103Z 18005KT 18/12 A3003 RMK A01 T01810118  RH  066%=      5-min Rain = 0
KHO1 251104Z 19004KT 18/12 A3003 RMK A01 T01800117  RH  067%=      5-min Rain = 0
KHO1 251105Z 18004KT 18/12 A3003 RMK A01 T01800117  RH  067%=      5-min Rain = 0
KHO1 251106Z 19005KT 18/12 A3003 RMK A01 T01790118  RH  067%=      5-min Rain = 0
KHO1 251107Z 19005KT 18/12 A3003 RMK A01 T01790118  RH  067%=      5-min Rain = 0
KHO1 251108Z 18005KT 18/12 A3003 RMK A01 T01790118  RH  068%=      5-min Rain = 0
KHO1 251109Z 18005KT 18/12 A3003 RMK A01 T01780118  RH  068%=      5-min Rain = 0
KHO1 251110Z 19005KT 18/12 A3003 RMK A01 T01780118  RH  068%=      5-min Rain = 0
KHO1 251111Z 19005KT 18/12 A3003 RMK A01 T01780118  RH  068%=      5-min Rain = 0
KHO1 251112Z 19005KT 18/12 A3003 RMK A01 T01770118  RH  068%=      5-min Rain = 0
KHO1 251113Z 19005KT 18/12 A3003 RMK A01 T01770118  RH  068%=      5-min Rain = 0
KHO1 251114Z 19005KT 18/12 A3003 RMK A01 T01760118  RH  068%=      5-min Rain = 0
KHO1 251115Z 19005KT 18/12 A3003 RMK A01 T01760117  RH  069%=      5-min Rain = 0
KHO1 251116Z 19005KT 18/12 A3003 RMK A01 T01750117  RH  069%=      5-min Rain = 0
KHO1 251117Z 19006KT 18/12 A3003 RMK A01 T01750117  RH  069%=      5-min Rain = 0
KHO1 251118Z 19006KT 17/12 A3003 RMK A01 T01740118  RH  069%=      5-min Rain = 0
KHO1 251119Z 19006KT 17/12 A3003 RMK A01 T01740118  RH  069%=      5-min Rain = 0
KHO1 251120Z 19007KT 18/12 A3003 RMK A01 T01750118  RH  069%=      5-min Rain = 0
KHO1 251121Z 19007KT 18/12 A3003 RMK A01 T01750118  RH  069%=      5-min Rain = 0
KHO1 251122Z 19007KT 18/12 A3003 RMK A01 T01750119  RH  069%=      5-min Rain = 0
KHO1 251123Z 20007KT 18/12 A3003 RMK A01 T01760119  RH  069%=      5-min Rain = 0
KHO1 251124Z 20006KT 18/12 A3003 RMK A01 T01760119  RH  069%=      5-min Rain = 0
KHO1 251125Z 19006KT 18/12 A3003 RMK A01 T01760119  RH  069%=      5-min Rain = 0
KHO1 251126Z 20006KT 18/12 A3003 RMK A01 T01760119  RH  069%=      5-min Rain = 0
KHO1 251127Z 20006KT 18/12 A3003 RMK A01 T01760119  RH  069%=      5-min Rain = 0
KHO1 251128Z 19006KT 18/12 A3003 RMK A01 T01760119  RH  069%=      5-min Rain = 0
KHO1 251129Z 20006KT 18/12 A3003 RMK A01 T01760118  RH  069%=      5-min Rain = 0
KHO1 251130Z 20006KT 18/12 A3003 RMK A01 T01760118  RH  069%=      5-min Rain = 0
KHO1 251131Z 20006KT 18/12 A3003 RMK A01 T01760118  RH  069%=      5-min Rain = 0
KHO1 251132Z 20005KT 18/12 A3003 RMK A01 T01750118  RH  069%=      5-min Rain = 0
KHO1 251133Z 20006KT 18/12 A3003 RMK A01 T01750118  RH  069%=      5-min Rain = 0
KHO1 251134Z 20006KT 18/12 A3003 RMK A01 T01750118  RH  069%=      5-min Rain = 0
KHO1 251135Z 20006KT 18/12 A3003 RMK A01 T01750118  RH  069%=      5-min Rain = 0
KHO1 251136Z 19007KT 18/12 A3003 RMK A01 T01750118  RH  069%=      5-min Rain = 0
KHO1 251137Z 19006KT 18/12 A3003 RMK A01 T01750118  RH  069%=      5-min Rain = 0
KHO1 251138Z 19007KT 18/12 A3003 RMK A01 T01760117  RH  069%=      5-min Rain = 0
KHO1 251139Z 20007KT 18/12 A3003 RMK A01 T01750117  RH  069%=      5-min Rain = 0
KHO1 251140Z 20006KT 18/12 A3003 RMK A01 T01750117  RH  069%=      5-min Rain = 0
KHO1 251141Z 20007KT 18/12 A3003 RMK A01 T01750117  RH  069%=      5-min Rain = 0
KHO1 251142Z 20006KT 18/12 A3003 RMK A01 T01750117  RH  069%=      5-min Rain = 0
KHO1 251143Z 20007KT 17/12 A3003 RMK A01 T01740117  RH  069%=      5-min Rain = 0
KHO1 251144Z 20007KT 18/12 A3003 RMK A01 T01750117  RH  069%=      5-min Rain = 0
KHO1 251145Z 20006KT 17/12 A3003 RMK A01 T01740117  RH  069%=      5-min Rain = 0
KHO1 251146Z 20006KT 17/12 A3003 RMK A01 T01740117  RH  069%=      5-min Rain = 0
KHO1 251147Z 21007KT 17/12 A3003 RMK A01 T01740117  RH  069%=      5-min Rain = 0
KHO1 251148Z 21007KT 17/12 A3004 RMK A01 T01740117  RH  069%=      5-min Rain = 0
KHO1 251149Z 20007KT 18/12 A3004 RMK A01 T01750118  RH  069%=      5-min Rain = 0
KHO1 251150Z 20007KT 18/12 A3004 RMK A01 T01750118  RH  069%=      5-min Rain = 0
KHO1 251151Z 20006KT 18/12 A3004 RMK A01 T01750117  RH  069%=      5-min Rain = 0
KHO1 251152Z 20007KT 18/12 A3004 RMK A01 T01750118  RH  069%=      5-min Rain = 0
KHO1 251153Z 20007KT 18/12 A3004 RMK A01 T01750118  RH  069%=      5-min Rain = 0
KHO1 251154Z 20006KT 18/12 A3004 RMK A01 T01750117  RH  069%=      5-min Rain = 0
KHO1 251155Z 20007KT 18/12 A3004 RMK A01 T01750117  RH  069%=      5-min Rain = 0
KHO1 251156Z 20006KT 18/12 A3004 RMK A01 T01750117  RH  069%=      5-min Rain = 0
KHO1 251157Z 20005KT 18/12 A3004 RMK A01 T01750117  RH  069%=      5-min Rain = 0
KHO1 251158Z 20006KT 18/12 A3004 RMK A01 T01750117  RH  069%=      5-min Rain = 0
KHO1 251159Z 20006KT 18/12 A3004 RMK A01 T01750118  RH  069%=      5-min Rain = 0
KHO1 251200Z 20006KT 18/12 A3004 RMK A01 T01750117  RH  069%=      5-min Rain = 0
KHO1 251201Z 20006KT 18/12 A3004 RMK A01 T01750117  RH  069%=      5-min Rain = 0
KHO1 251202Z 20006KT 18/12 A3004 RMK A01 T01750117  RH  069%=      5-min Rain = 0
KHO1 251203Z 20005KT 18/12 A3004 RMK A01 T01750117  RH  069%=      5-min Rain = 0
KHO1 251204Z 19005KT 18/12 A3004 RMK A01 T01750117  RH  069%=      5-min Rain = 0
KHO1 251205Z 19005KT 18/12 A3004 RMK A01 T01750117  RH  069%=      5-min Rain = 0
KHO1 251206Z 19005KT 18/12 A3004 RMK A01 T01750117  RH  069%=      5-min Rain = 0
KHO1 251207Z 19005KT 18/12 A3004 RMK A01 T01750117  RH  069%=      5-min Rain = 0
KHO1 251208Z 19005KT 18/12 A3004 RMK A01 T01750117  RH  069%=      5-min Rain = 0
KHO1 251209Z 19006KT 18/12 A3004 RMK A01 T01750117  RH  069%=      5-min Rain = 0
KHO1 251210Z 19005KT 18/12 A3004 RMK A01 T01750117  RH  069%=      5-min Rain = 0
KHO1 251211Z 20005KT 18/12 A3004 RMK A01 T01750117  RH  069%=      5-min Rain = 0
KHO1 251212Z 20005KT 18/12 A3005 RMK A01 T01750117  RH  069%=      5-min Rain = 0
KHO1 251213Z 20005KT 18/12 A3004 RMK A01 T01750117  RH  069%=      5-min Rain = 0
KHO1 251214Z 20005KT 18/12 A3005 RMK A01 T01750117  RH  069%=      5-min Rain = 0
KHO1 251215Z 19005KT 18/12 A3005 RMK A01 T01750118  RH  069%=      5-min Rain = 0
KHO1 251216Z 19006KT 18/12 A3005 RMK A01 T01760118  RH  069%=      5-min Rain = 0
KHO1 251217Z 20005KT 18/12 A3005 RMK A01 T01760118  RH  069%=      5-min Rain = 0
KHO1 251218Z 20006KT 18/12 A3005 RMK A01 T01760118  RH  069%=      5-min Rain = 0
KHO1 251219Z 20005KT 18/12 A3005 RMK A01 T01760118  RH  069%=      5-min Rain = 0
KHO1 251220Z 20005KT 18/12 A3005 RMK A01 T01760118  RH  069%=      5-min Rain = 0
KHO1 251221Z 20005KT 18/12 A3005 RMK A01 T01770118  RH  068%=      5-min Rain = 0
KHO1 251222Z 20006KT 18/12 A3005 RMK A01 T01770118  RH  068%=      5-min Rain = 0
KHO1 251223Z 20006KT 18/12 A3005 RMK A01 T01780118  RH  068%=      5-min Rain = 0
KHO1 251224Z 20006KT 18/12 A3005 RMK A01 T01780118  RH  068%=      5-min Rain = 0
KHO1 251225Z 19006KT 18/12 A3005 RMK A01 T01780119  RH  068%=      5-min Rain = 0
KHO1 251226Z 19006KT 18/12 A3005 RMK A01 T01790119  RH  068%=      5-min Rain = 0
KHO1 251227Z 19005KT 18/12 A3005 RMK A01 T01790119  RH  068%=      5-min Rain = 0
KHO1 251228Z 19004KT 18/12 A3005 RMK A01 T01800119  RH  067%=      5-min Rain = 0
KHO1 251229Z 19005KT 18/12 A3005 RMK A01 T01800119  RH  067%=      5-min Rain = 0
KHO1 251230Z 19005KT 18/12 A3005 RMK A01 T01800119  RH  067%=      5-min Rain = 0
KHO1 251231Z 19004KT 18/12 A3005 RMK A01 T01810119  RH  067%=      5-min Rain = 0
KHO1 251232Z 18005KT 18/12 A3005 RMK A01 T01810119  RH  067%=      5-min Rain = 0
KHO1 251233Z 18005KT 18/12 A3005 RMK A01 T01810119  RH  067%=      5-min Rain = 0
KHO1 251234Z 18005KT 18/12 A3005 RMK A01 T01820119  RH  067%=      5-min Rain = 0
KHO1 251235Z 17004KT 18/12 A3005 RMK A01 T01820120  RH  067%=      5-min Rain = 0
KHO1 251236Z 17005KT 18/12 A3005 RMK A01 T01830120  RH  067%=      5-min Rain = 0
KHO1 251237Z 17005KT 18/12 A3005 RMK A01 T01840120  RH  066%=      5-min Rain = 0
KHO1 251238Z 17006KT 19/12 A3005 RMK A01 T01850120  RH  066%=      5-min Rain = 0
KHO1 251239Z 17006KT 19/12 A3006 RMK A01 T01850120  RH  066%=      5-min Rain = 0
KHO1 251240Z 17007KT 19/12 A3005 RMK A01 T01850120  RH  066%=      5-min Rain = 0
KHO1 251241Z 17006KT 19/12 A3005 RMK A01 T01850119  RH  065%=      5-min Rain = 0
KHO1 251242Z 17006KT 19/12 A3005 RMK A01 T01850120  RH  066%=      5-min Rain = 0
KHO1 251243Z 18006KT 19/12 A3006 RMK A01 T01850120  RH  066%=      5-min Rain = 0
KHO1 251244Z 18007KT 19/12 A3006 RMK A01 T01860120  RH  066%=      5-min Rain = 0
KHO1 251245Z 18008KT 19/12 A3006 RMK A01 T01860121  RH  066%=      5-min Rain = 0
KHO1 251246Z 17007KT 19/12 A3006 RMK A01 T01860121  RH  066%=      5-min Rain = 0
KHO1 251247Z 18007KT 19/12 A3006 RMK A01 T01860121  RH  066%=      5-min Rain = 0
KHO1 251248Z 18005KT 19/12 A3005 RMK A01 T01860121  RH  066%=      5-min Rain = 0
KHO1 251249Z 18008KT 19/12 A3006 RMK A01 T01870122  RH  066%=      5-min Rain = 0
KHO1 251250Z 17008KT 19/12 A3005 RMK A01 T01880123  RH  066%=      5-min Rain = 0
KHO1 251251Z 18007KT 19/12 A3005 RMK A01 T01880123  RH  066%=      5-min Rain = 0
KHO1 251252Z 18006KT 19/12 A3006 RMK A01 T01880124  RH  066%=      5-min Rain = 0
KHO1 251253Z 17007KT 19/12 A3006 RMK A01 T01890124  RH  066%=      5-min Rain = 0
KHO1 251254Z 18008KT 19/13 A3006 RMK A01 T01890125  RH  066%=      5-min Rain = 0
KHO1 251255Z 17008KT 19/13 A3006 RMK A01 T01890125  RH  066%=      5-min Rain = 0
KHO1 251256Z 18007KT 19/13 A3006 RMK A01 T01900126  RH  066%=      5-min Rain = 0
KHO1 251257Z 17006KT 19/13 A3006 RMK A01 T01910126  RH  066%=      5-min Rain = 0
KHO1 251258Z 17006KT 19/13 A3006 RMK A01 T01910127  RH  066%=      5-min Rain = 0
KHO1 251259Z 17007KT 19/13 A3006 RMK A01 T01920127  RH  066%=      5-min Rain = 0
KHO1 251300Z 17007KT 19/13 A3006 RMK A01 T01920127  RH  066%=      5-min Rain = 0
KHO1 251301Z 17007KT 19/13 A3006 RMK A01 T01920127  RH  066%=      5-min Rain = 0
KHO1 251302Z 18008KT 19/13 A3006 RMK A01 T01920128  RH  067%=      5-min Rain = 0
KHO1 251303Z 18008KT 19/13 A3006 RMK A01 T01920130  RH  067%=      5-min Rain = 0
KHO1 251304Z 18007KT 19/13 A3006 RMK A01 T01930130  RH  067%=      5-min Rain = 0
KHO1 251305Z 18007KT 19/13 A3006 RMK A01 T01930129  RH  067%=      5-min Rain = 0
KHO1 251306Z 17006KT 19/13 A3006 RMK A01 T01930128  RH  066%=      5-min Rain = 0
KHO1 251307Z 18007KT 19/13 A3006 RMK A01 T01940129  RH  066%=      5-min Rain = 0
KHO1 251308Z 18009KT 19/13 A3006 RMK A01 T01940131  RH  067%=      5-min Rain = 0
KHO1 251309Z 18008KT 19/13 A3006 RMK A01 T01940131  RH  067%=      5-min Rain = 0
KHO1 251310Z 18008KT 19/13 A3006 RMK A01 T01940132  RH  067%=      5-min Rain = 0
KHO1 251311Z 18007KT 20/13 A3006 RMK A01 T01950132  RH  067%=      5-min Rain = 0
KHO1 251312Z 17007KT 20/13 A3006 RMK A01 T01960133  RH  067%=      5-min Rain = 0
KHO1 251313Z 17008KT 20/13 A3006 RMK A01 T01960133  RH  067%=      5-min Rain = 0
KHO1 251314Z 17009KT 20/13 A3006 RMK A01 T01970133  RH  067%=      5-min Rain = 0
KHO1 251315Z 18010KT 20/14 A3006 RMK A01 T01970135  RH  068%=      5-min Rain = 0
KHO1 251316Z 17009KT 20/14 A3007 RMK A01 T01970136  RH  068%=      5-min Rain = 0
KHO1 251317Z 17010KT 20/14 A3006 RMK A01 T01980136  RH  067%=      5-min Rain = 0
KHO1 251318Z 18007KT 20/14 A3006 RMK A01 T01980136  RH  067%=      5-min Rain = 0
KHO1 251319Z 18010KT 20/14 A3007 RMK A01 T01990137  RH  067%=      5-min Rain = 0
KHO1 251320Z 18010KT 20/14 A3007 RMK A01 T01990138  RH  068%=      5-min Rain = 0
KHO1 251321Z 18009KT 20/14 A3007 RMK A01 T02000138  RH  068%=      5-min Rain = 0
KHO1 251322Z 18009KT 20/14 A3006 RMK A01 T02000138  RH  068%=      5-min Rain = 0
KHO1 251323Z 17009KT 20/14 A3006 RMK A01 T02000138  RH  067%=      5-min Rain = 0
KHO1 251324Z 18010KT 20/14 A3007 RMK A01 T02010138  RH  067%=      5-min Rain = 0
KHO1 251325Z 17011KT 20/14 A3007 RMK A01 T02010139  RH  068%=      5-min Rain = 0
KHO1 251326Z 17009KT 20/14 A3007 RMK A01 T02010140  RH  068%=      5-min Rain = 0
KHO1 251327Z 18009KT 20/14 A3007 RMK A01 T02020140  RH  068%=      5-min Rain = 0
KHO1 251328Z 17009KT 20/14 A3007 RMK A01 T02030141  RH  067%=      5-min Rain = 0
KHO1 251329Z 18008KT 20/14 A3007 RMK A01 T02040141  RH  067%=      5-min Rain = 0
KHO1 251330Z 17012KT 20/14 A3007 RMK A01 T02040142  RH  067%=      5-min Rain = 0
KHO1 251331Z 17012KT 20/14 A3007 RMK A01 T02040143  RH  068%=      5-min Rain = 0
KHO1 251332Z 18013KT 20/14 A3007 RMK A01 T02040144  RH  068%=      5-min Rain = 0
KHO1 251333Z 18011KT 20/14 A3007 RMK A01 T02030143  RH  068%=      5-min Rain = 0
KHO1 251334Z 19010KT 21/14 A3007 RMK A01 T02050144  RH  068%=      5-min Rain = 0
KHO1 251335Z 18009KT 21/15 A3007 RMK A01 T02060146  RH  068%=      5-min Rain = 0
KHO1 251336Z 17012KT 21/15 A3007 RMK A01 T02070146  RH  068%=      5-min Rain = 0
KHO1 251337Z 17011KT 21/15 A3007 RMK A01 T02060146  RH  068%=      5-min Rain = 0
KHO1 251338Z 17013KT 21/15 A3007 RMK A01 T02080147  RH  068%=      5-min Rain = 0
KHO1 251339Z 18013KT 21/15 A3007 RMK A01 T02080147  RH  068%=      5-min Rain = 0
KHO1 251340Z 18012KT 21/15 A3007 RMK A01 T02070147  RH  068%=      5-min Rain = 0
KHO1 251341Z 18010G18KT 21/15 A3007 RMK A01 T02090148  RH  068%=      5-min Rain = 0
KHO1 251342Z 18012G17KT 21/15 A3007 RMK A01 T02100148  RH  068%=      5-min Rain = 0
KHO1 251343Z 18012KT 21/15 A3007 RMK A01 T02100149  RH  068%=      5-min Rain = 0
KHO1 251344Z 18015KT 21/15 A3007 RMK A01 T02110149  RH  068%=      5-min Rain = 0
KHO1 251345Z 18015KT 21/15 A3007 RMK A01 T02100149  RH  068%=      5-min Rain = 0
KHO1 251346Z 18017KT 21/15 A3007 RMK A01 T02100149  RH  068%=      5-min Rain = 0
KHO1 251347Z 18016KT 21/15 A3007 RMK A01 T02100150  RH  068%=      5-min Rain = 0
KHO1 251348Z 18017KT 21/15 A3007 RMK A01 T02100150  RH  069%=      5-min Rain = 0
KHO1 251349Z 18017KT 21/15 A3007 RMK A01 T02100150  RH  068%=      5-min Rain = 0
KHO1 251350Z 18018KT 21/15 A3007 RMK A01 T02100150  RH  068%=      5-min Rain = 0
KHO1 251351Z 17016KT 21/15 A3007 RMK A01 T02090149  RH  068%=      5-min Rain = 0
KHO1 251352Z 18016KT 21/15 A3007 RMK A01 T02100149  RH  068%=      5-min Rain = 0
KHO1 251353Z 18012KT 21/15 A3007 RMK A01 T02110150  RH  068%=      5-min Rain = 0
KHO1 251354Z 18017KT 21/15 A3007 RMK A01 T02120149  RH  068%=      5-min Rain = 0
KHO1 251355Z 18014KT 21/15 A3007 RMK A01 T02120149  RH  068%=      5-min Rain = 0
KHO1 251356Z 18012KT 21/15 A3007 RMK A01 T02130150  RH  067%=      5-min Rain = 0
KHO1 251357Z 18012G17KT 21/15 A3007 RMK A01 T02140150  RH  067%=      5-min Rain = 0
KHO1 251358Z 19012KT 22/15 A3007 RMK A01 T02160150  RH  066%=      5-min Rain = 0
KHO1 251359Z 19013KT 22/15 A3007 RMK A01 T02160150  RH  066%=      5-min Rain = 0
KHO1 251400Z 18015KT 22/15 A3007 RMK A01 T02160150  RH  066%=      5-min Rain = 0
KHO1 251401Z 19013KT 22/15 A3007 RMK A01 T02160150  RH  066%=      5-min Rain = 0
KHO1 251402Z 19014KT 22/15 A3007 RMK A01 T02170151  RH  066%=      5-min Rain = 0
KHO1 251403Z 19013KT 22/15 A3007 RMK A01 T02170150  RH  066%=      5-min Rain = 0
KHO1 251404Z 19013KT 22/15 A3007 RMK A01 T02180152  RH  066%=      5-min Rain = 0
KHO1 251405Z 18013KT 22/15 A3007 RMK A01 T02190151  RH  065%=      5-min Rain = 0
KHO1 251406Z 19012KT 22/15 A3007 RMK A01 T02190151  RH  066%=      5-min Rain = 0
KHO1 251407Z 19014KT 22/15 A3007 RMK A01 T02190152  RH  065%=      5-min Rain = 0
KHO1 251408Z 19014KT 22/15 A3007 RMK A01 T02180151  RH  066%=      5-min Rain = 0
KHO1 251409Z 18013KT 22/15 A3007 RMK A01 T02190152  RH  066%=      5-min Rain = 0
KHO1 251410Z 18012KT 22/15 A3007 RMK A01 T02190152  RH  066%=      5-min Rain = 0
KHO1 251411Z 18013KT 22/15 A3007 RMK A01 T02200153  RH  065%=      5-min Rain = 0
KHO1 251412Z 18015KT 22/15 A3008 RMK A01 T02210152  RH  065%=      5-min Rain = 0
KHO1 251413Z 17014KT 22/15 A3008 RMK A01 T02190151  RH  065%=      5-min Rain = 0
KHO1 251414Z 18012KT 22/15 A3007 RMK A01 T02180152  RH  066%=      5-min Rain = 0
KHO1 251415Z 17013KT 22/15 A3007 RMK A01 T02190153  RH  066%=      5-min Rain = 0
KHO1 251416Z 18015KT 22/15 A3007 RMK A01 T02200153  RH  065%=      5-min Rain = 0
KHO1 251417Z 18014KT 22/15 A3007 RMK A01 T02190152  RH  066%=      5-min Rain = 0
KHO1 251418Z 19013KT 22/15 A3008 RMK A01 T02190152  RH  066%=      5-min Rain = 0
KHO1 251419Z 18013KT 22/15 A3007 RMK A01 T02200153  RH  066%=      5-min Rain = 0
KHO1 251420Z 18013KT 22/15 A3007 RMK A01 T02210153  RH  065%=      5-min Rain = 0
KHO1 251421Z 18012KT 22/15 A3007 RMK A01 T02230153  RH  065%=      5-min Rain = 0
KHO1 251422Z 19013KT 22/15 A3007 RMK A01 T02230152  RH  064%=      5-min Rain = 0
KHO1 251423Z 19013KT 22/15 A3007 RMK A01 T02210152  RH  065%=      5-min Rain = 0
KHO1 251424Z 20011KT 22/15 A3007 RMK A01 T02220153  RH  065%=      5-min Rain = 0
KHO1 251425Z 19012KT 22/15 A3007 RMK A01 T02240154  RH  064%=      5-min Rain = 0
KHO1 251426Z 18011KT 23/15 A3007 RMK A01 T02250154  RH  064%=      5-min Rain = 0
KHO1 251427Z 18014KT 22/15 A3007 RMK A01 T02240152  RH  064%=      5-min Rain = 0
KHO1 251428Z 19013KT 22/15 A3007 RMK A01 T02230153  RH  064%=      5-min Rain = 0
KHO1 251429Z 19011KT 22/15 A3007 RMK A01 T02240154  RH  064%=      5-min Rain = 0
KHO1 251430Z 18012KT 23/15 A3007 RMK A01 T02280154  RH  063%=      5-min Rain = 0
KHO1 251431Z 18012KT 23/15 A3007 RMK A01 T02270153  RH  063%=      5-min Rain = 0
KHO1 251432Z 17013KT 23/15 A3007 RMK A01 T02270153  RH  063%=      5-min Rain = 0
KHO1 251433Z 19011KT 23/15 A3007 RMK A01 T02270153  RH  063%=      5-min Rain = 0
KHO1 251434Z 19011KT 23/15 A3007 RMK A01 T02270154  RH  063%=      5-min Rain = 0
KHO1 251435Z 18010KT 23/16 A3007 RMK A01 T02290155  RH  063%=      5-min Rain = 0
KHO1 251436Z 18012KT 23/15 A3007 RMK A01 T02300154  RH  062%=      5-min Rain = 0
KHO1 251437Z 19011KT 23/15 A3007 RMK A01 T02300154  RH  062%=      5-min Rain = 0
KHO1 251438Z 18010KT 23/15 A3007 RMK A01 T02300154  RH  062%=      5-min Rain = 0
KHO1 251439Z 19010KT 23/16 A3007 RMK A01 T02320155  RH  062%=      5-min Rain = 0
KHO1 251440Z 19013KT 23/15 A3007 RMK A01 T02330154  RH  061%=      5-min Rain = 0
KHO1 251441Z 19013KT 23/15 A3007 RMK A01 T02310153  RH  061%=      5-min Rain = 0
KHO1 251442Z 19014KT 23/15 A3007 RMK A01 T02310153  RH  062%=      5-min Rain = 0
KHO1 251443Z 19011KT 23/16 A3007 RMK A01 T02330155  RH  062%=      5-min Rain = 0
KHO1 251444Z 19014KT 23/15 A3007 RMK A01 T02330153  RH  061%=      5-min Rain = 0
KHO1 251445Z 20013KT 23/15 A3007 RMK A01 T02330154  RH  061%=      5-min Rain = 0
KHO1 251446Z 20013KT 23/15 A3007 RMK A01 T02320154  RH  061%=      5-min Rain = 0
KHO1 251447Z 20012KT 23/15 A3007 RMK A01 T02330154  RH  061%=      5-min Rain = 0
KHO1 251448Z 20012KT 23/15 A3007 RMK A01 T02340154  RH  061%=      5-min Rain = 0
KHO1 251449Z 20011KT 24/16 A3007 RMK A01 T02350155  RH  061%=      5-min Rain = 0
KHO1 251450Z 19011KT 24/16 A3007 RMK A01 T02380156  RH  060%=      5-min Rain = 0
KHO1 251451Z 18009KT 24/16 A3007 RMK A01 T02380155  RH  060%=      5-min Rain = 0
KHO1 251452Z 18011KT 24/16 A3007 RMK A01 T02370155  RH  060%=      5-min Rain = 0
KHO1 251453Z 18011KT 24/16 A3007 RMK A01 T02380156  RH  060%=      5-min Rain = 0
KHO1 251454Z 18012KT 24/16 A3007 RMK A01 T02390155  RH  059%=      5-min Rain = 0
KHO1 251455Z 19009KT 24/16 A3007 RMK A01 T02390156  RH  060%=      5-min Rain = 0
KHO1 251456Z 20010KT 24/16 A3007 RMK A01 T02390155  RH  059%=      5-min Rain = 0
KHO1 251457Z 20009KT 24/16 A3007 RMK A01 T02390155  RH  059%=      5-min Rain = 0
KHO1 251458Z 20010KT 24/15 A3007 RMK A01 T02400154  RH  059%=      5-min Rain = 0
KHO1 251459Z 19010KT 24/16 A3007 RMK A01 T02410155  RH  059%=      5-min Rain = 0
KHO1 251500Z 19011KT 24/16 A3007 RMK A01 T02420155  RH  058%=      5-min Rain = 0
KHO1 251501Z 20009KT 24/16 A3007 RMK A01 T02420156  RH  059%=      5-min Rain = 0
KHO1 251502Z 21012KT 24/15 A3007 RMK A01 T02440154  RH  057%=      5-min Rain = 0
KHO1 251503Z 20011KT 24/15 A3007 RMK A01 T02420153  RH  058%=      5-min Rain = 0
KHO1 251504Z 18011KT 24/15 A3007 RMK A01 T02420154  RH  058%=      5-min Rain = 0
KHO1 251505Z 19009G14KT 24/16 A3007 RMK A01 T02420155  RH  058%=      5-min Rain = 0
KHO1 251506Z 19013KT 24/15 A3007 RMK A01 T02430154  RH  057%=      5-min Rain = 0
KHO1 251507Z 19010KT 24/15 A3007 RMK A01 T02430154  RH  058%=      5-min Rain = 0
KHO1 251508Z 19012KT 24/15 A3007 RMK A01 T02440154  RH  057%=      5-min Rain = 0
KHO1 251509Z 19013KT 25/15 A3007 RMK A01 T02450153  RH  057%=      5-min Rain = 0
KHO1 251510Z 20011KT 24/15 A3007 RMK A01 T02430153  RH  057%=      5-min Rain = 0
KHO1 251511Z 20011KT 24/15 A3007 RMK A01 T02430153  RH  057%=      5-min Rain = 0
KHO1 251512Z 19011KT 24/15 A3007 RMK A01 T02440154  RH  057%=      5-min Rain = 0
KHO1 251513Z 18012KT 24/15 A3007 RMK A01 T02430153  RH  057%=      5-min Rain = 0
KHO1 251514Z 19010KT 24/15 A3007 RMK A01 T02430153  RH  057%=      5-min Rain = 0
KHO1 251515Z 19011KT 25/15 A3007 RMK A01 T02450154  RH  057%=      5-min Rain = 0
KHO1 251516Z 20011KT 25/15 A3007 RMK A01 T02450153  RH  057%=      5-min Rain = 0
KHO1 251517Z 21011KT 25/15 A3007 RMK A01 T02450154  RH  057%=      5-min Rain = 0
KHO1 251518Z 19012KT 25/15 A3007 RMK A01 T02450152  RH  056%=      5-min Rain = 0
KHO1 251519Z 19014KT 25/15 A3007 RMK A01 T02470152  RH  055%=      5-min Rain = 0
KHO1 251520Z 19013KT 25/15 A3007 RMK A01 T02480152  RH  055%=      5-min Rain = 0
KHO1 251521Z 20011KT 25/15 A3007 RMK A01 T02480152  RH  055%=      5-min Rain = 0
KHO1 251522Z 20011KT 25/15 A3007 RMK A01 T02470152  RH  055%=      5-min Rain = 0
KHO1 251523Z 19009KT 25/15 A3006 RMK A01 T02480152  RH  055%=      5-min Rain = 0
KHO1 251524Z 19010KT 25/15 A3006 RMK A01 T02490152  RH  055%=      5-min Rain = 0
KHO1 251525Z 20010KT 25/15 A3006 RMK A01 T02490150  RH  054%=      5-min Rain = 0
KHO1 251526Z 21009KT 25/15 A3006 RMK A01 T02500151  RH  054%=      5-min Rain = 0
KHO1 251527Z 18009KT 25/15 A3006 RMK A01 T02520152  RH  054%=      5-min Rain = 0
KHO1 251528Z 20009KT 25/15 A3006 RMK A01 T02540151  RH  053%=      5-min Rain = 0
KHO1 251529Z 20009KT 26/15 A3006 RMK A01 T02560150  RH  052%=      5-min Rain = 0
KHO1 251530Z 20010KT 26/15 A3006 RMK A01 T02550150  RH  052%=      5-min Rain = 0
KHO1 251531Z 20009KT 26/15 A3006 RMK A01 T02550152  RH  053%=      5-min Rain = 0
KHO1 251532Z 21009KT 25/15 A3006 RMK A01 T02540151  RH  053%=      5-min Rain = 0
KHO1 251533Z 20009KT 25/15 A3006 RMK A01 T02540152  RH  053%=      5-min Rain = 0
KHO1 251534Z 20009KT 25/15 A3006 RMK A01 T02530150  RH  053%=      5-min Rain = 0
KHO1 251535Z 20009KT 25/15 A3006 RMK A01 T02540149  RH  052%=      5-min Rain = 0
KHO1 251536Z 21008KT 26/15 A3006 RMK A01 T02550148  RH  051%=      5-min Rain = 0
KHO1 251537Z 20010KT 26/15 A3006 RMK A01 T02580151  RH  052%=      5-min Rain = 0
KHO1 251538Z 19010KT 26/15 A3006 RMK A01 T02590150  RH  051%=      5-min Rain = 0
KHO1 251539Z 19013KT 26/15 A3006 RMK A01 T02600149  RH  051%=      5-min Rain = 0
KHO1 251540Z 19011KT 26/15 A3006 RMK A01 T02570149  RH  051%=      5-min Rain = 0
KHO1 251541Z 20010KT 26/15 A3006 RMK A01 T02580149  RH  051%=      5-min Rain = 0
KHO1 251542Z 19009KT 26/15 A3006 RMK A01 T02590151  RH  051%=      5-min Rain = 0
KHO1 251543Z 18009KT 26/15 A3006 RMK A01 T02600148  RH  050%=      5-min Rain = 0
KHO1 251544Z 19011KT 26/15 A3006 RMK A01 T02600148  RH  050%=      5-min Rain = 0
KHO1 251545Z 19011KT 26/15 A3006 RMK A01 T02620145  RH  048%=      5-min Rain = 0
KHO1 251546Z 19008KT 26/14 A3006 RMK A01 T02610144  RH  049%=      5-min Rain = 0
KHO1 251547Z 19009KT 26/14 A3006 RMK A01 T02630144  RH  048%=      5-min Rain = 0
KHO1 251548Z 18010KT 26/15 A3006 RMK A01 T02630146  RH  048%=      5-min Rain = 0
KHO1 251549Z 18009KT 26/15 A3006 RMK A01 T02630147  RH  049%=      5-min Rain = 0
KHO1 251550Z 19007KT 26/15 A3006 RMK A01 T02640148  RH  049%=      5-min Rain = 0
KHO1 251551Z 19006KT 26/15 A3006 RMK A01 T02620147  RH  049%=      5-min Rain = 0
KHO1 251552Z 20007KT 27/15 A3006 RMK A01 T02650149  RH  049%=      5-min Rain = 0
KHO1 251553Z 20011KT 27/14 A3006 RMK A01 T02690144  RH  046%=      5-min Rain = 0
KHO1 251554Z 20009KT 27/14 A3006 RMK A01 T02680141  RH  046%=      5-min Rain = 0
KHO1 251555Z 21010KT 27/14 A3006 RMK A01 T02670138  RH  045%=      5-min Rain = 0
KHO1 251556Z 21009KT 27/14 A3006 RMK A01 T02670142  RH  046%=      5-min Rain = 0
KHO1 251557Z 20008KT 27/14 A3006 RMK A01 T02680142  RH  046%=      5-min Rain = 0
KHO1 251558Z 19009KT 27/14 A3006 RMK A01 T02690144  RH  046%=      5-min Rain = 0
KHO1 251559Z 21008KT 27/14 A3006 RMK A01 T02680143  RH  046%=      5-min Rain = 0
KHO1 251600Z 20009KT 27/14 A3006 RMK A01 T02690143  RH  046%=      5-min Rain = 0
KHO1 251601Z 20008KT 27/14 A3006 RMK A01 T02700142  RH  045%=      5-min Rain = 0
KHO1 251602Z 19009KT 27/14 A3006 RMK A01 T02720139  RH  044%=      5-min Rain = 0
KHO1 251603Z 20006KT 27/14 A3006 RMK A01 T02710140  RH  045%=      5-min Rain = 0
KHO1 251604Z 19009KT 27/14 A3006 RMK A01 T02720140  RH  044%=      5-min Rain = 0
KHO1 251605Z 21009KT 27/14 A3006 RMK A01 T02710141  RH  045%=      5-min Rain = 0
KHO1 251606Z 20010KT 27/14 A3006 RMK A01 T02740140  RH  044%=      5-min Rain = 0
KHO1 251607Z 20008KT 27/14 A3006 RMK A01 T02720138  RH  043%=      5-min Rain = 0
KHO1 251608Z 21008KT 27/14 A3006 RMK A01 T02710141  RH  045%=      5-min Rain = 0
KHO1 251609Z 20009KT 27/14 A3006 RMK A01 T02730143  RH  045%=      5-min Rain = 0
KHO1 251610Z 18009KT 28/14 A3006 RMK A01 T02760140  RH  043%=      5-min Rain = 0
KHO1 251611Z 19009KT 28/14 A3006 RMK A01 T02760138  RH  043%=      5-min Rain = 0
KHO1 251612Z 18010KT 27/14 A3006 RMK A01 T02740135  RH  042%=      5-min Rain = 0
KHO1 251613Z 18011KT 27/14 A3006 RMK A01 T02730135  RH  043%=      5-min Rain = 0
KHO1 251614Z 19010KT 28/14 A3006 RMK A01 T02750138  RH  043%=      5-min Rain = 0
KHO1 251615Z 18007KT 28/14 A3006 RMK A01 T02750137  RH  043%=      5-min Rain = 0
KHO1 251616Z 18007KT 28/14 A3006 RMK A01 T02760138  RH  043%=      5-min Rain = 0
KHO1 251617Z 18009KT 28/14 A3006 RMK A01 T02790137  RH  042%=      5-min Rain = 0
KHO1 251618Z 19009KT 28/14 A3006 RMK A01 T02810138  RH  041%=      5-min Rain = 0
KHO1 251619Z 21007KT 28/14 A3006 RMK A01 T02790137  RH  042%=      5-min Rain = 0
KHO1 251620Z 18006KT 28/14 A3006 RMK A01 T02780137  RH  042%=      5-min Rain = 0
KHO1 251621Z 17008KT 28/14 A3006 RMK A01 T02790136  RH  042%=      5-min Rain = 0
KHO1 251622Z 18006KT 28/13 A3006 RMK A01 T02790134  RH  041%=      5-min Rain = 0
KHO1 251623Z 19006KT 28/14 A3006 RMK A01 T02810138  RH  041%=      5-min Rain = 0
KHO1 251624Z 20006KT 29/14 A3006 RMK A01 T02860138  RH  040%=      5-min Rain = 0
KHO1 251625Z 19007KT 29/13 A3006 RMK A01 T02880133  RH  039%=      5-min Rain = 0
KHO1 251626Z 19007KT 29/14 A3006 RMK A01 T02880135  RH  039%=      5-min Rain = 0
KHO1 251627Z 16009KT 29/13 A3006 RMK A01 T02880132  RH  038%=      5-min Rain = 0
KHO1 251628Z 18006KT 29/13 A3006 RMK A01 T02880131  RH  038%=      5-min Rain = 0
KHO1 251629Z 17005KT 29/13 A3006 RMK A01 T02850131  RH  039%=      5-min Rain = 0
KHO1 251630Z 20007KT 29/14 A3006 RMK A01 T02880136  RH  039%=      5-min Rain = 0
KHO1 251631Z 18004KT 29/13 A3006 RMK A01 T02890134  RH  039%=      5-min Rain = 0
KHO1 251632Z 18009KT 29/13 A3006 RMK A01 T02890133  RH  038%=      5-min Rain = 0
KHO1 251633Z 19008KT 29/13 A3006 RMK A01 T02900132  RH  038%=      5-min Rain = 0
KHO1 251634Z 19006KT 29/13 A3006 RMK A01 T02890132  RH  038%=      5-min Rain = 0
KHO1 251635Z 18008KT 29/13 A3006 RMK A01 T02910129  RH  037%=      5-min Rain = 0
KHO1 251636Z 19007KT 29/13 A3006 RMK A01 T02890128  RH  037%=      5-min Rain = 0
KHO1 251637Z 19007KT 29/13 A3006 RMK A01 T02880129  RH  037%=      5-min Rain = 0
KHO1 251638Z 17007KT 29/13 A3006 RMK A01 T02890128  RH  037%=      5-min Rain = 0
KHO1 251639Z 19008KT 29/13 A3006 RMK A01 T02900129  RH  037%=      5-min Rain = 0
KHO1 251640Z 19007KT 29/13 A3006 RMK A01 T02890127  RH  037%=      5-min Rain = 0
KHO1 251641Z 21006KT 29/13 A3006 RMK A01 T02900130  RH  037%=      5-min Rain = 0
KHO1 251642Z 21005KT 29/13 A3006 RMK A01 T02910128  RH  037%=      5-min Rain = 0
KHO1 251643Z 18008KT 29/13 A3006 RMK A01 T02920128  RH  036%=      5-min Rain = 0
KHO1 251644Z 18010KT 29/13 A3006 RMK A01 T02930126  RH  036%=      5-min Rain = 0
KHO1 251645Z 18007KT 29/13 A3006 RMK A01 T02930127  RH  036%=      5-min Rain = 0
KHO1 251646Z 18006KT 29/12 A3006 RMK A01 T02940124  RH  035%=      5-min Rain = 0
KHO1 251647Z 21006KT 30/13 A3006 RMK A01 T02990128  RH  035%=      5-min Rain = 0
KHO1 251648Z 18006KT 30/12 A3006 RMK A01 T03020124  RH  033%=      5-min Rain = 0
KHO1 251649Z 21004KT 30/12 A3006 RMK A01 T03000122  RH  033%=      5-min Rain = 0
KHO1 251650Z 19005KT 30/12 A3006 RMK A01 T02980123  RH  034%=      5-min Rain = 0
KHO1 251651Z 20007KT 30/12 A3006 RMK A01 T02970121  RH  034%=      5-min Rain = 0
KHO1 251652Z 19006KT 30/12 A3006 RMK A01 T02950118  RH  033%=      5-min Rain = 0
KHO1 251653Z 22005KT 29/12 A3006 RMK A01 T02940122  RH  035%=      5-min Rain = 0
KHO1 251654Z 21005KT 30/12 A3006 RMK A01 T02960123  RH  035%=      5-min Rain = 0
KHO1 251655Z 17007KT 30/12 A3006 RMK A01 T02960122  RH  034%=      5-min Rain = 0
KHO1 251656Z 18007G12KT 30/12 A3006 RMK A01 T02980124  RH  034%=      5-min Rain = 0
KHO1 251657Z 19009KT 30/12 A3006 RMK A01 T02990123  RH  034%=      5-min Rain = 0
KHO1 251658Z 18007KT 30/12 A3006 RMK A01 T03000122  RH  033%=      5-min Rain = 0
KHO1 251659Z 18006KT 30/12 A3006 RMK A01 T02980122  RH  034%=      5-min Rain = 0
KHO1 251700Z 16007KT 30/12 A3006 RMK A01 T03010123  RH  034%=      5-min Rain = 0
KHO1 251701Z 17008KT 30/12 A3006 RMK A01 T03000121  RH  033%=      5-min Rain = 0
KHO1 251702Z 20008KT 30/12 A3006 RMK A01 T03010122  RH  033%=      5-min Rain = 0
KHO1 251703Z 20008KT 30/12 A3006 RMK A01 T03040123  RH  033%=      5-min Rain = 0
KHO1 251704Z 21006KT 30/12 A3006 RMK A01 T03040121  RH  033%=      5-min Rain = 0
KHO1 251705Z 18007KT 30/12 A3006 RMK A01 T03030122  RH  033%=      5-min Rain = 0
KHO1 251706Z 20007KT 30/12 A3006 RMK A01 T03010121  RH  033%=      5-min Rain = 0
KHO1 251707Z 19007KT 30/12 A3006 RMK A01 T03020121  RH  033%=      5-min Rain = 0
KHO1 251708Z 19007KT 30/12 A3006 RMK A01 T03040120  RH  032%=      5-min Rain = 0
KHO1 251709Z 19010KT 30/12 A3006 RMK A01 T03040118  RH  032%=      5-min Rain = 0
KHO1 251710Z 18007KT 30/12 A3006 RMK A01 T03010117  RH  032%=      5-min Rain = 0
KHO1 251711Z 18008KT 30/12 A3006 RMK A01 T03030118  RH  032%=      5-min Rain = 0
KHO1 251712Z 19007KT 30/12 A3006 RMK A01 T03010115  RH  032%=      5-min Rain = 0
KHO1 251713Z 18009KT 30/12 A3006 RMK A01 T03020117  RH  032%=      5-min Rain = 0
KHO1 251714Z 18008KT 31/12 A3006 RMK A01 T03050119  RH  032%=      5-min Rain = 0
KHO1 251715Z 20006KT 31/12 A3006 RMK A01 T03050119  RH  032%=      5-min Rain = 0
KHO1 251716Z 20006KT 31/12 A3006 RMK A01 T03060119  RH  032%=      5-min Rain = 0
KHO1 251717Z 19007KT 31/12 A3006 RMK A01 T03070121  RH  032%=      5-min Rain = 0
KHO1 251718Z 18007KT 31/12 A3006 RMK A01 T03070117  RH  031%=      5-min Rain = 0
KHO1 251719Z 21008KT 31/11 A3006 RMK A01 T03100112  RH  030%=      5-min Rain = 0
KHO1 251720Z 20008KT 31/11 A3006 RMK A01 T03130111  RH  029%=      5-min Rain = 0
KHO1 251721Z 20007KT 31/12 A3006 RMK A01 T03110115  RH  030%=      5-min Rain = 0
KHO1 251722Z 21008KT 31/12 A3006 RMK A01 T03130117  RH  030%=      5-min Rain = 0
KHO1 251723Z 22006KT 31/12 A3006 RMK A01 T03080115  RH  031%=      5-min Rain = 0
KHO1 251724Z 22006KT 31/12 A3005 RMK A01 T03060116  RH  031%=      5-min Rain = 0
KHO1 251725Z 20008KT 31/12 A3006 RMK A01 T03090117  RH  031%=      5-min Rain = 0
KHO1 251726Z 19011KT 32/12 A3005 RMK A01 T03150116  RH  030%=      5-min Rain = 0
KHO1 251727Z 19009KT 31/11 A3006 RMK A01 T03140114  RH  029%=      5-min Rain = 0
KHO1 251728Z 18008KT 31/11 A3005 RMK A01 T03130113  RH  029%=      5-min Rain = 0
KHO1 251729Z 19008KT 31/11 A3005 RMK A01 T03110114  RH  030%=      5-min Rain = 0
KHO1 251730Z 18007KT 31/12 A3005 RMK A01 T03110116  RH  030%=      5-min Rain = 0
KHO1 251731Z 18006KT 31/12 A3005 RMK A01 T03100116  RH  030%=      5-min Rain = 0
KHO1 251732Z 18008KT 31/12 A3005 RMK A01 T03090117  RH  031%=      5-min Rain = 0
KHO1 251733Z 17008KT 31/12 A3005 RMK A01 T03090118  RH  031%=      5-min Rain = 0
KHO1 251734Z 17005KT 31/12 A3005 RMK A01 T03070115  RH  031%=      5-min Rain = 0
KHO1 251735Z 16006KT 31/11 A3005 RMK A01 T03070113  RH  030%=      5-min Rain = 0
KHO1 251736Z 18008G13KT 31/11 A3005 RMK A01 T03120107  RH  028%=      5-min Rain = 0
KHO1 251737Z 19008KT 32/11 A3005 RMK A01 T03170107  RH  028%=      5-min Rain = 0
KHO1 251738Z 18007KT 32/11 A3005 RMK A01 T03170108  RH  028%=      5-min Rain = 0
KHO1 251739Z 18010KT 32/11 A3005 RMK A01 T03160106  RH  028%=      5-min Rain = 0
KHO1 251740Z 18008KT 32/11 A3005 RMK A01 T03160106  RH  027%=      5-min Rain = 0
KHO1 251741Z 20006KT 31/11 A3005 RMK A01 T03140107  RH  028%=      5-min Rain = 0
KHO1 251742Z 17008KT 32/11 A3005 RMK A01 T03200109  RH  027%=      5-min Rain = 0
KHO1 251743Z 17008KT 32/10 A3005 RMK A01 T03200103  RH  026%=      5-min Rain = 0
KHO1 251744Z 18010KT 32/11 A3005 RMK A01 T03230107  RH  027%=      5-min Rain = 0
KHO1 251745Z 19008KT 32/10 A3005 RMK A01 T03200103  RH  026%=      5-min Rain = 0
KHO1 251746Z 18007KT 32/10 A3005 RMK A01 T03180103  RH  027%=      5-min Rain = 0
KHO1 251747Z 18008KT 32/11 A3005 RMK A01 T03210108  RH  027%=      5-min Rain = 0
KHO1 251748Z 17009KT 32/11 A3005 RMK A01 T03210108  RH  027%=      5-min Rain = 0
KHO1 251749Z 17011KT 32/10 A3005 RMK A01 T03210103  RH  026%=      5-min Rain = 0
KHO1 251750Z 18009KT 32/10 A3005 RMK A01 T03230101  RH  025%=      5-min Rain = 0
KHO1 251751Z 18007KT 32/10 A3005 RMK A01 T03200096  RH  025%=      5-min Rain = 0
KHO1 251752Z 18010KT 32/10 A3005 RMK A01 T03200097  RH  025%=      5-min Rain = 0
KHO1 251753Z 18009KT 32/09 A3005 RMK A01 T03210093  RH  024%=      5-min Rain = 0
KHO1 251754Z 16009KT 32/10 A3005 RMK A01 T03220095  RH  025%=      5-min Rain = 0
KHO1 251755Z 17009KT 33/10 A3005 RMK A01 T03260095  RH  024%=      5-min Rain = 0
KHO1 251756Z 20007KT 32/10 A3005 RMK A01 T03240097  RH  025%=      5-min Rain = 0
KHO1 251757Z 19006KT 32/10 A3005 RMK A01 T03230095  RH  025%=      5-min Rain = 0
KHO1 251758Z 20006KT 32/10 A3005 RMK A01 T03210095  RH  025%=      5-min Rain = 0
KHO1 251759Z 18008G14KT 32/10 A3005 RMK A01 T03230095  RH  025%=      5-min Rain = 0
KHO1 251800Z 20011KT 33/10 A3005 RMK A01 T03280095  RH  024%=      5-min Rain = 0
KHO1 251801Z 19010KT 32/09 A3005 RMK A01 T03240093  RH  024%=      5-min Rain = 0
KHO1 251802Z 21005KT 32/09 A3005 RMK A01 T03200094  RH  025%=      5-min Rain = 0
KHO1 251803Z 21003KT 32/10 A3005 RMK A01 T03200096  RH  025%=      5-min Rain = 0
KHO1 251804Z 19009KT 32/10 A3005 RMK A01 T03230096  RH  025%=      5-min Rain = 0
KHO1 251805Z 20009KT 32/09 A3005 RMK A01 T03240091  RH  024%=      5-min Rain = 0
KHO1 251806Z 20008KT 32/09 A3005 RMK A01 T03240094  RH  024%=      5-min Rain = 0
KHO1 251807Z 20008KT 33/10 A3005 RMK A01 T03270100  RH  025%=      5-min Rain = 0
KHO1 251808Z 22010KT 33/09 A3005 RMK A01 T03310092  RH  023%=      5-min Rain = 0
KHO1 251809Z 23008KT 33/09 A3005 RMK A01 T03300091  RH  023%=      5-min Rain = 0
KHO1 251810Z 21007KT 33/09 A3005 RMK A01 T03290089  RH  023%=      5-min Rain = 0
KHO1 251811Z 21005KT 33/08 A3005 RMK A01 T03280084  RH  022%=      5-min Rain = 0
KHO1 251812Z 20009KT 33/08 A3005 RMK A01 T03310083  RH  022%=      5-min Rain = 0
KHO1 251813Z 19011KT 33/07 A3005 RMK A01 T03320073  RH  020%=      5-min Rain = 0
KHO1 251814Z 18012KT 33/07 A3005 RMK A01 T03310071  RH  020%=      5-min Rain = 0
KHO1 251815Z 19010KT 33/08 A3005 RMK A01 T03310075  RH  020%=      5-min Rain = 0
KHO1 251816Z 19006KT 33/07 A3005 RMK A01 T03310072  RH  020%=      5-min Rain = 0
KHO1 251817Z 17006KT 33/08 A3005 RMK A01 T03310076  RH  021%=      5-min Rain = 0
KHO1 251818Z 17006KT 33/08 A3005 RMK A01 T03300077  RH  021%=      5-min Rain = 0
KHO1 251819Z 19007KT 33/08 A3005 RMK A01 T03300079  RH  021%=      5-min Rain = 0
KHO1 251820Z 19008KT 33/07 A3005 RMK A01 T03330072  RH  020%=      5-min Rain = 0
KHO1 251821Z 19008KT 34/07 A3004 RMK A01 T03350074  RH  020%=      5-min Rain = 0
KHO1 251822Z 17010KT 34/08 A3004 RMK A01 T03350076  RH  020%=      5-min Rain = 0
KHO1 251823Z 16012KT 34/07 A3004 RMK A01 T03380070  RH  019%=      5-min Rain = 0
KHO1 251824Z 18007KT 34/06 A3005 RMK A01 T03390060  RH  018%=      5-min Rain = 0
KHO1 251825Z 17011KT 34/07 A3005 RMK A01 T03410068  RH  019%=      5-min Rain = 0
KHO1 251826Z 15009KT 34/07 A3004 RMK A01 T03410068  RH  018%=      5-min Rain = 0
KHO1 251827Z 13006KT 34/07 A3004 RMK A01 T03410071  RH  019%=      5-min Rain = 0
KHO1 251828Z 15006KT 34/07 A3004 RMK A01 T03380072  RH  019%=      5-min Rain = 0
KHO1 251829Z 15006KT 34/08 A3004 RMK A01 T03380075  RH  020%=      5-min Rain = 0
KHO1 251830Z 16008KT 34/07 A3004 RMK A01 T03410069  RH  019%=      5-min Rain = 0
KHO1 251831Z 16009G14KT 34/06 A3004 RMK A01 T03410058  RH  017%=      5-min Rain = 0
KHO1 251832Z 18009KT 34/06 A3004 RMK A01 T03410056  RH  017%=      5-min Rain = 0
KHO1 251833Z 18009KT 34/07 A3004 RMK A01 T03410067  RH  018%=      5-min Rain = 0
KHO1 251834Z 17008KT 34/05 A3004 RMK A01 T03420049  RH  016%=      5-min Rain = 0
KHO1 251835Z 20008KT 34/07 A3004 RMK A01 T03440073  RH  019%=      5-min Rain = 0
KHO1 251836Z 21008KT 34/07 A3004 RMK A01 T03420071  RH  019%=      5-min Rain = 0
KHO1 251837Z 19012KT 34/05 A3004 RMK A01 T03390046  RH  016%=      5-min Rain = 0
KHO1 251838Z 18011KT 34/04 A3004 RMK A01 T03410041  RH  015%=      5-min Rain = 0
KHO1 251839Z 19010KT 34/03 A3004 RMK A01 T03410033  RH  014%=      5-min Rain = 0
KHO1 251840Z 19006KT 34/03 A3004 RMK A01 T03380030  RH  014%=      5-min Rain = 0
KHO1 251841Z 19009KT 34/04 A3004 RMK A01 T03400038  RH  015%=      5-min Rain = 0
KHO1 251842Z 18007KT 34/04 A3004 RMK A01 T03420040  RH  015%=      5-min Rain = 0
KHO1 251843Z 17006KT 34/05 A3004 RMK A01 T03390046  RH  016%=      5-min Rain = 0
KHO1 251844Z 21007KT 34/04 A3004 RMK A01 T03420037  RH  015%=      5-min Rain = 0
KHO1 251845Z 20005G10KT 34/04 A3004 RMK A01 T03410036  RH  015%=      5-min Rain = 0
KHO1 251846Z 16010KT 34/04 A3004 RMK A01 T03430035  RH  014%=      5-min Rain = 0
KHO1 251847Z 16009KT 34/04 A3004 RMK A01 T03400041  RH  015%=      5-min Rain = 0
KHO1 251848Z 15011KT 34/05 A3004 RMK A01 T03430053  RH  016%=      5-min Rain = 0
KHO1 251849Z 15009KT 34/05 A3004 RMK A01 T03410050  RH  016%=      5-min Rain = 0
KHO1 251850Z 18011KT 34/04 A3004 RMK A01 T03440041  RH  015%=      5-min Rain = 0
KHO1 251851Z 20011KT 34/04 A3003 RMK A01 T03420041  RH  015%=      5-min Rain = 0
KHO1 251852Z 17014KT 34/05 A3003 RMK A01 T03440053  RH  016%=      5-min Rain = 0
KHO1 251853Z 17009G14KT 34/05 A3004 RMK A01 T03430046  RH  016%=      5-min Rain = 0
KHO1 251854Z 17006KT 34/05 A3003 RMK A01 T03410050  RH  016%=      5-min Rain = 0
KHO1 251855Z 18008KT 34/05 A3003 RMK A01 T03400049  RH  016%=      5-min Rain = 0
KHO1 251856Z 17007G13KT 34/05 A3003 RMK A01 T03380048  RH  016%=      5-min Rain = 0
KHO1 251857Z 16012KT 34/01 A3003 RMK A01 T03390008  RH  012%=      5-min Rain = 0
KHO1 251858Z 15011KT 34/02 A3003 RMK A01 T03420015  RH  013%=      5-min Rain = 0
KHO1 251859Z 16011KT 35/01 A3003 RMK A01 T03460013  RH  012%=      5-min Rain = 0
KHO1 251900Z 15011KT 35/02 A3003 RMK A01 T03460015  RH  012%=      5-min Rain = 0
KHO1 251901Z 15009KT 35/02 A3003 RMK A01 T03480017  RH  012%=      5-min Rain = 0
KHO1 251902Z 15009KT 35/02 A3003 RMK A01 T03490016  RH  012%=      5-min Rain = 0
KHO1 251903Z 16009KT 35/02 A3003 RMK A01 T03480017  RH  012%=      5-min Rain = 0
KHO1 251904Z 16009KT 35/02 A3003 RMK A01 T03500021  RH  013%=      5-min Rain = 0
KHO1 251905Z 17007KT 35/02 A3003 RMK A01 T03500024  RH  013%=      5-min Rain = 0
KHO1 251906Z 16007KT 35/03 A3003 RMK A01 T03500031  RH  014%=      5-min Rain = 0
KHO1 251907Z 14006KT 35/03 A3003 RMK A01 T03460031  RH  014%=      5-min Rain = 0
KHO1 251908Z 18010KT 35/03 A3003 RMK A01 T03470026  RH  013%=      5-min Rain = 0
KHO1 251909Z 17013KT 35/02 A3003 RMK A01 T03520021  RH  013%=      5-min Rain = 0
KHO1 251910Z 18012KT 35/01 A3003 RMK A01 T03500013  RH  012%=      5-min Rain = 0
KHO1 251911Z 19012KT 35/02 A3003 RMK A01 T03500017  RH  012%=      5-min Rain = 0
KHO1 251912Z 19010KT 35/02 A3003 RMK A01 T03490019  RH  013%=      5-min Rain = 0
KHO1 251913Z 19012KT 35/02 A3003 RMK A01 T03470018  RH  013%=      5-min Rain = 0
KHO1 251914Z 21010KT 35/02 A3003 RMK A01 T03480018  RH  012%=      5-min Rain = 0
KHO1 251915Z 22006KT 35/02 A3003 RMK A01 T03450018  RH  013%=      5-min Rain = 0
KHO1 251916Z 20005KT 35/02 A3003 RMK A01 T03450022  RH  013%=      5-min Rain = 0
KHO1 251917Z 15005G18KT 35/02 A3003 RMK A01 T03470024  RH  013%=      5-min Rain = 0
KHO1 251918Z 16011KT 35/03 A3003 RMK A01 T03490029  RH  013%=      5-min Rain = 0
KHO1 251919Z 15013KT 35/02 A3003 RMK A01 T03530022  RH  013%=      5-min Rain = 0
KHO1 251920Z 14009KT 35/02 A3003 RMK A01 T03520021  RH  013%=      5-min Rain = 0
KHO1 251921Z 13007KT 35/02 A3002 RMK A01 T03520018  RH  012%=      5-min Rain = 0
KHO1 251922Z 13008KT 35/02 A3003 RMK A01 T03520019  RH  012%=      5-min Rain = 0
KHO1 251923Z 17008KT 35/02 A3003 RMK A01 T03510020  RH  013%=      5-min Rain = 0
KHO1 251924Z 17011KT 35/02 A3002 RMK A01 T03500017  RH  012%=      5-min Rain = 0
KHO1 251925Z 15007KT 35/02 A3002 RMK A01 T03500016  RH  012%=      5-min Rain = 0
KHO1 251926Z 15013G19KT 35/02 A3002 RMK A01 T03540017  RH  012%=      5-min Rain = 0
KHO1 251927Z 16014KT 36/02 A3002 RMK A01 T03570020  RH  012%=      5-min Rain = 0
KHO1 251928Z 18011KT 36/02 A3002 RMK A01 T03550021  RH  012%=      5-min Rain = 0
KHO1 251929Z 17011KT 35/02 A3002 RMK A01 T03530018  RH  012%=      5-min Rain = 0
KHO1 251930Z 17010KT 35/02 A3002 RMK A01 T03510015  RH  012%=      5-min Rain = 0
KHO1 251931Z 17009KT 35/01 A3002 RMK A01 T03480012  RH  012%=      5-min Rain = 0
KHO1 251932Z 16008KT 35/01 A3002 RMK A01 T03470009  RH  012%=      5-min Rain = 0
KHO1 251933Z 15006KT 35/01 A3002 RMK A01 T03480011  RH  012%=      5-min Rain = 0
KHO1 251934Z 16008KT 35/02 A3002 RMK A01 T03540015  RH  012%=      5-min Rain = 0
KHO1 251935Z 17013KT 35/01 A3002 RMK A01 T03540012  RH  012%=      5-min Rain = 0
KHO1 251936Z 17013G18KT 35/00 A3002 RMK A01 T03530003  RH  011%=      5-min Rain = 0
KHO1 251937Z 19010KT 36/00 A3002 RMK A01 T03550003  RH  011%=      5-min Rain = 0
KHO1 251938Z 21009KT 35/M00 A3002 RMK A01 T03521004  RH  010%=      5-min Rain = 0
KHO1 251939Z 19007KT 35/01 A3002 RMK A01 T03510010  RH  012%=      5-min Rain = 0
KHO1 251940Z 16015G20KT 35/02 A3002 RMK A01 T03510018  RH  012%=      5-min Rain = 0
KHO1 251941Z 16013KT 35/02 A3002 RMK A01 T03540015  RH  012%=      5-min Rain = 0
KHO1 251942Z 17009KT 36/01 A3002 RMK A01 T03550005  RH  011%=      5-min Rain = 0
KHO1 251943Z 17009KT 36/00 A3002 RMK A01 T03550004  RH  011%=      5-min Rain = 0
KHO1 251944Z 17008KT 36/00 A3002 RMK A01 T035800-0  RH  010%=      5-min Rain = 0
KHO1 251945Z 18005KT 36/M01 A3002 RMK A01 T03561011  RH  010%=      5-min Rain = 0
KHO1 251946Z 19003KT 35/M01 A3002 RMK A01 T03531009  RH  010%=      5-min Rain = 0
KHO1 251947Z 18003KT 35/M01 A3002 RMK A01 T03531007  RH  010%=      5-min Rain = 0
KHO1 251948Z 19005KT 35/M00 A3002 RMK A01 T03521004  RH  010%=      5-min Rain = 0
KHO1 251949Z 17010KT 35/01 A3002 RMK A01 T03530006  RH  011%=      5-min Rain = 0
KHO1 251950Z 17009KT 36/01 A3002 RMK A01 T03550007  RH  011%=      5-min Rain = 0
KHO1 251951Z 18014KT 36/00 A3002 RMK A01 T03570004  RH  011%=      5-min Rain = 0
KHO1 251952Z 19011KT 35/00 A3002 RMK A01 T03540002  RH  011%=      5-min Rain = 0
KHO1 251953Z 21008KT 35/01 A3002 RMK A01 T03540005  RH  011%=      5-min Rain = 0
KHO1 251954Z 21006KT 35/00 A3002 RMK A01 T03510001  RH  011%=      5-min Rain = 0
KHO1 251955Z 20003KT 35/M00 A3001 RMK A01 T03501004  RH  011%=      5-min Rain = 0
KHO1 251956Z 18003KT 35/M00 A3001 RMK A01 T03521004  RH  010%=      5-min Rain = 0
KHO1 251957Z 16005KT 35/M01 A3001 RMK A01 T03521005  RH  010%=      5-min Rain = 0
KHO1 251958Z 18004KT 35/M01 A3001 RMK A01 T03501008  RH  010%=      5-min Rain = 0
KHO1 251959Z 16006KT 35/M01 A3001 RMK A01 T03501006  RH  010%=      5-min Rain = 0
KHO1 252000Z 17007G14KT 35/M01 A3001 RMK A01 T03521006  RH  010%=      5-min Rain = 0
KHO1 252001Z 17014KT 35/00 A3001 RMK A01 T03540004  RH  011%=      5-min Rain = 0
KHO1 252002Z 17011KT 36/01 A3001 RMK A01 T03580006  RH  011%=      5-min Rain = 0
KHO1 252003Z 19011KT 36/00 A3001 RMK A01 T03550002  RH  011%=      5-min Rain = 0
KHO1 252004Z 17011KT 36/01 A3001 RMK A01 T03560007  RH  011%=      5-min Rain = 0
KHO1 252005Z 17012KT 36/00 A3001 RMK A01 T035700-0  RH  010%=      5-min Rain = 0
KHO1 252006Z 18013KT 36/M01 A3001 RMK A01 T03581009  RH  010%=      5-min Rain = 0
KHO1 252007Z 18009KT 36/M01 A3001 RMK A01 T03591007  RH  010%=      5-min Rain = 0
KHO1 252008Z 17013KT 36/M00 A3001 RMK A01 T03601003  RH  010%=      5-min Rain = 0
KHO1 252009Z 18009KT 36/00 A3001 RMK A01 T03600001  RH  010%=      5-min Rain = 0
KHO1 252010Z 19009KT 36/M00 A3001 RMK A01 T03591002  RH  010%=      5-min Rain = 0
KHO1 252011Z 18007G12KT 36/M00 A3001 RMK A01 T03561001  RH  010%=      5-min Rain = 0
KHO1 252012Z 16010KT 36/M00 A3001 RMK A01 T03551001  RH  010%=      5-min Rain = 0
KHO1 252013Z 16005KT 35/M00 A3001 RMK A01 T03511004  RH  011%=      5-min Rain = 0
KHO1 252014Z 14010G17KT 35/M00 A30 RMK A01 T03521003  RH  011%=      5-min Rain = 0
KHO1 252015Z 16012KT 36/M01 A3001 RMK A01 T03561007  RH  010%=      5-min Rain = 0
KHO1 252016Z 18011KT 36/M01 A3001 RMK A01 T03551007  RH  010%=      5-min Rain = 0
KHO1 252017Z 16014G21KT 36/00 A30 RMK A01 T03560004  RH  011%=      5-min Rain = 0
KHO1 252018Z 17013KT 36/00 A3001 RMK A01 T03590002  RH  011%=      5-min Rain = 0
KHO1 252019Z 18010KT 35/M00 A30 RMK A01 T03541002  RH  010%=      5-min Rain = 0
KHO1 252020Z 19006KT 35/M00 A30 RMK A01 T03501004  RH  011%=      5-min Rain = 0
KHO1 252021Z 17013G18KT 36/00 A30 RMK A01 T03550001  RH  011%=      5-min Rain = 0
KHO1 252022Z 16010KT 36/M01 A3001 RMK A01 T03571005  RH  010%=      5-min Rain = 0
KHO1 252023Z 17009KT 36/M00 A3001 RMK A01 T03561003  RH  010%=      5-min Rain = 0
KHO1 252024Z 16008KT 36/M01 A3001 RMK A01 T03561006  RH  010%=      5-min Rain = 0
KHO1 252025Z 16010KT 36/M01 A30 RMK A01 T03571006  RH  010%=      5-min Rain = 0
KHO1 252026Z 16010KT 36/M01 A30 RMK A01 T03561007  RH  010%=      5-min Rain = 0
KHO1 252027Z 15008KT 36/M01 A30 RMK A01 T03551005  RH  010%=      5-min Rain = 0
KHO1 252028Z 16007KT 35/M00 A30 RMK A01 T03531003  RH  010%=      5-min Rain = 0
KHO1 252029Z 17012KT 36/M00 A30 RMK A01 T03561001  RH  010%=      5-min Rain = 0
KHO1 252030Z 15007KT 36/M01 A30 RMK A01 T03551006  RH  010%=      5-min Rain = 0
KHO1 252031Z 13004KT 35/M01 A30 RMK A01 T03511008  RH  010%=      5-min Rain = 0
KHO1 252032Z 12004KT 35/M00 A30 RMK A01 T03531004  RH  010%=      5-min Rain = 0
KHO1 252033Z 17008G14KT 36/M01 A30 RMK A01 T03551006  RH  010%=      5-min Rain = 0
KHO1 252034Z 17012KT 36/M01 A30 RMK A01 T03561007  RH  010%=      5-min Rain = 0
KHO1 252035Z 17011KT 36/M01 A30 RMK A01 T03561007  RH  010%=      5-min Rain = 0
KHO1 252036Z 16006KT 36/M01 A30 RMK A01 T03551008  RH  010%=      5-min Rain = 0
KHO1 252037Z 19007KT 36/M00 A30 RMK A01 T03561004  RH  010%=      5-min Rain = 0
KHO1 252038Z 17007KT 36/M01 A30 RMK A01 T03571005  RH  010%=      5-min Rain = 0
KHO1 252039Z 25003KT 35/M01 A30 RMK A01 T03521006  RH  010%=      5-min Rain = 0
KHO1 252040Z 25004KT 35/M01 A2999 RMK A01 T03521005  RH  010%=      5-min Rain = 0
KHO1 252041Z 17010KT 35/M00 A30 RMK A01 T03531003  RH  010%=      5-min Rain = 0
KHO1 252042Z 15008KT 35/M00 A30 RMK A01 T03531003  RH  010%=      5-min Rain = 0
KHO1 252043Z 13009KT 36/M00 A30 RMK A01 T03551002  RH  010%=      5-min Rain = 0
KHO1 252044Z 16012KT 36/00 A2999 RMK A01 T03570001  RH  011%=      5-min Rain = 0
KHO1 252045Z 17013KT 36/M00 A30 RMK A01 T03581001  RH  010%=      5-min Rain = 0
KHO1 252046Z 16012KT 36/M00 A30 RMK A01 T03591001  RH  010%=      5-min Rain = 0
KHO1 252047Z 16014KT 36/M00 A30 RMK A01 T03561003  RH  010%=      5-min Rain = 0
KHO1 252048Z 17012KT 35/M00 A30 RMK A01 T03531001  RH  011%=      5-min Rain = 0
KHO1 252049Z 17009KT 36/M00 A30 RMK A01 T03551001  RH  010%=      5-min Rain = 0
KHO1 252050Z 16006KT 35/M00 A30 RMK A01 T03541003  RH  010%=      5-min Rain = 0
KHO1 252051Z 15009KT 35/M01 A30 RMK A01 T03531007  RH  010%=      5-min Rain = 0
KHO1 252052Z 16008KT 35/M01 A2999 RMK A01 T03521006  RH  010%=      5-min Rain = 0
KHO1 252053Z 15008KT 36/M01 A2999 RMK A01 T03551005  RH  010%=      5-min Rain = 0
KHO1 252054Z 15014G19KT 36/M00 A2999 RMK A01 T03591003  RH  010%=      5-min Rain = 0
KHO1 252055Z 14012KT 36/M01 A2999 RMK A01 T03601005  RH  010%=      5-min Rain = 0
KHO1 252056Z 14011KT 36/M00 A2999 RMK A01 T03591004  RH  010%=      5-min Rain = 0
KHO1 252057Z 16010KT 36/M00 A2999 RMK A01 T03601004  RH  010%=      5-min Rain = 0
KHO1 252058Z 15010KT 36/M01 A2999 RMK A01 T03591006  RH  010%=      5-min Rain = 0
KHO1 252059Z 13009KT 36/M00 A2999 RMK A01 T03611002  RH  010%=      5-min Rain = 0
KHO1 252100Z 13008KT 36/M00 A2999 RMK A01 T03621004  RH  010%=      5-min Rain = 0
KHO1 252101Z 13012KT 36/M01 A2999 RMK A01 T03611007  RH  010%=      5-min Rain = 0
KHO1 252102Z 13010KT 36/M01 A2999 RMK A01 T03571009  RH  010%=      5-min Rain = 0
KHO1 252103Z 12009KT 36/M01 A2999 RMK A01 T03571005  RH  010%=      5-min Rain = 0
KHO1 252104Z 13012KT 36/M01 A2999 RMK A01 T03601009  RH  010%=      5-min Rain = 0
KHO1 252105Z 12010KT 36/M01 A2999 RMK A01 T03591009  RH  010%=      5-min Rain = 0
KHO1 252106Z 12010KT 36/M01 A2999 RMK A01 T03591010  RH  010%=      5-min Rain = 0
KHO1 252107Z 13011KT 36/M01 A2999 RMK A01 T03581011  RH  010%=      5-min Rain = 0
KHO1 252108Z 14009KT 36/M01 A2999 RMK A01 T03551012  RH  010%=      5-min Rain = 0
KHO1 252109Z 15012KT 36/M02 A2999 RMK A01 T03571015  RH  009%=      5-min Rain = 0
KHO1 252110Z 15009KT 36/M02 A2999 RMK A01 T03561021  RH  009%=      5-min Rain = 0
KHO1 252111Z 15008KT 35/M02 A2999 RMK A01 T03531021  RH  009%=      5-min Rain = 0
KHO1 252112Z 16009KT 36/M02 A2999 RMK A01 T03551015  RH  009%=      5-min Rain = 0
KHO1 252113Z 16008KT 36/M01 A2999 RMK A01 T03571012  RH  010%=      5-min Rain = 0
KHO1 252114Z 16007KT 36/M02 A2999 RMK A01 T03581016  RH  009%=      5-min Rain = 0
KHO1 252115Z 17008G13KT 36/M01 A2999 RMK A01 T03591013  RH  009%=      5-min Rain = 0
KHO1 252116Z 16009KT 36/M02 A2999 RMK A01 T03591015  RH  009%=      5-min Rain = 0
KHO1 252117Z 17012KT 36/M01 A2999 RMK A01 T03591010  RH  010%=      5-min Rain = 0
KHO1 252118Z 16014KT 36/M01 A2999 RMK A01 T03601013  RH  009%=      5-min Rain = 0
KHO1 252119Z 15011KT 36/M01 A2999 RMK A01 T03591013  RH  009%=      5-min Rain = 0
KHO1 252120Z 13010KT 36/M01 A2999 RMK A01 T03621009  RH  010%=      5-min Rain = 0
KHO1 252121Z 13013KT 37/M01 A2998 RMK A01 T03661011  RH  009%=      5-min Rain = 0
KHO1 252122Z 14007G12KT 36/M01 A2999 RMK A01 T03631014  RH  009%=      5-min Rain = 0
KHO1 252123Z 13002KT 36/M01 A2999 RMK A01 T03601014  RH  009%=      5-min Rain = 0
KHO1 252124Z 15002KT 36/M02 A2999 RMK A01 T03601015  RH  009%=      5-min Rain = 0
KHO1 252125Z 15005KT 36/M01 A2998 RMK A01 T03601013  RH  009%=      5-min Rain = 0
KHO1 252126Z 13006KT 36/M02 A2998 RMK A01 T03581016  RH  009%=      5-min Rain = 0
KHO1 252127Z 15006KT 36/M01 A2998 RMK A01 T03571013  RH  010%=      5-min Rain = 0
KHO1 252128Z 18008KT 36/M01 A2998 RMK A01 T03591010  RH  010%=      5-min Rain = 0
KHO1 252129Z 17010KT 36/M01 A2998 RMK A01 T03601011  RH  009%=      5-min Rain = 0
KHO1 252130Z 17010KT 36/M01 A2998 RMK A01 T03601009  RH  010%=      5-min Rain = 0
KHO1 252131Z 17012KT 36/M01 A2998 RMK A01 T03601010  RH  010%=      5-min Rain = 0
KHO1 252132Z 18010KT 36/M01 A2998 RMK A01 T03591012  RH  009%=      5-min Rain = 0
KHO1 252133Z 18009G14KT 36/M01 A2998 RMK A01 T03591014  RH  009%=      5-min Rain = 0
KHO1 252134Z 17003KT 35/M02 A2998 RMK A01 T03531015  RH  010%=      5-min Rain = 0
KHO1 252135Z 14001KT 35/M01 A2998 RMK A01 T03511013  RH  010%=      5-min Rain = 0
KHO1 252136Z 14004KT 35/M01 A2998 RMK A01 T03511012  RH  010%=      5-min Rain = 0
KHO1 252137Z 14004KT 35/M01 A2998 RMK A01 T03511012  RH  010%=      5-min Rain = 0
KHO1 252138Z 14009KT 35/M01 A2998 RMK A01 T03521010  RH  010%=      5-min Rain = 0
KHO1 252139Z 15009KT 36/M01 A2998 RMK A01 T03561009  RH  010%=      5-min Rain = 0
KHO1 252140Z 16012KT 36/M01 A2998 RMK A01 T03571011  RH  010%=      5-min Rain = 0
KHO1 252141Z 16015KT 36/M01 A2998 RMK A01 T03581011  RH  010%=      5-min Rain = 0
KHO1 252142Z 17016KT 36/M01 A2998 RMK A01 T03591011  RH  010%=      5-min Rain = 0
KHO1 252143Z 15015KT 36/M01 A2998 RMK A01 T03571012  RH  010%=      5-min Rain = 0
KHO1 252144Z 15013KT 36/M01 A2998 RMK A01 T03581010  RH  010%=      5-min Rain = 0
KHO1 252145Z 17011KT 36/M01 A2998 RMK A01 T03571012  RH  010%=      5-min Rain = 0
KHO1 252146Z 18007KT 35/M01 A2998 RMK A01 T03531014  RH  010%=      5-min Rain = 0
KHO1 252147Z 15009KT 35/M02 A2998 RMK A01 T03511015  RH  010%=      5-min Rain = 0
KHO1 252148Z 14012KT 35/M01 A2998 RMK A01 T03491014  RH  010%=      5-min Rain = 0
KHO1 252149Z 14008KT 35/M02 A2998 RMK A01 T03481015  RH  010%=      5-min Rain = 0
KHO1 252150Z 14007KT 35/M01 A2998 RMK A01 T03481013  RH  010%=      5-min Rain = 0
KHO1 252151Z 13006KT 35/M01 A2998 RMK A01 T03481012  RH  010%=      5-min Rain = 0
KHO1 252152Z 13004KT 35/M01 A2998 RMK A01 T03471014  RH  010%=      5-min Rain = 0
KHO1 252153Z 12003KT 35/M01 A2998 RMK A01 T03471012  RH  010%=      5-min Rain = 0
KHO1 252154Z 14002KT 35/M01 A2998 RMK A01 T03471013  RH  010%=      5-min Rain = 0
KHO1 252155Z 17002KT 35/M02 A2998 RMK A01 T03471015  RH  010%=      5-min Rain = 0
KHO1 252156Z 16004KT 35/M02 A2998 RMK A01 T03491015  RH  010%=      5-min Rain = 0
KHO1 252157Z 16005KT 35/M02 A2998 RMK A01 T03501016  RH  010%=      5-min Rain = 0
KHO1 252158Z 16005KT 35/M02 A2998 RMK A01 T03521015  RH  010%=      5-min Rain = 0
KHO1 252159Z 16005KT 36/M01 A2998 RMK A01 T03551013  RH  010%=      5-min Rain = 0
KHO1 252200Z 15006KT 36/M01 A2998 RMK A01 T03571011  RH  010%=      5-min Rain = 0
KHO1 252201Z 15007KT 36/M01 A2998 RMK A01 T03611011  RH  009%=      5-min Rain = 0
KHO1 252202Z 15007KT 36/M01 A2997 RMK A01 T03601014  RH  009%=      5-min Rain = 0
KHO1 252203Z 17011KT 36/M01 A2997 RMK A01 T03621012  RH  009%=      5-min Rain = 0
KHO1 252204Z 16011KT 37/M01 A2997 RMK A01 T03661010  RH  009%=      5-min Rain = 0
KHO1 252205Z 14012G17KT 37/M01 A2997 RMK A01 T03701012  RH  009%=      5-min Rain = 0
KHO1 252206Z 15013KT 37/M01 A2997 RMK A01 T03681014  RH  009%=      5-min Rain = 0
KHO1 252207Z 14009KT 37/M02 A2997 RMK A01 T03661015  RH  009%=      5-min Rain = 0
KHO1 252208Z 14008KT 36/M02 A2997 RMK A01 T03631015  RH  009%=      5-min Rain = 0
KHO1 252209Z 15012KT 37/M01 A2997 RMK A01 T03651014  RH  009%=      5-min Rain = 0
KHO1 252210Z 14012KT 37/M01 A2997 RMK A01 T03651014  RH  009%=      5-min Rain = 0
KHO1 252211Z 14016KT 37/M02 A2997 RMK A01 T03651015  RH  009%=      5-min Rain = 0
KHO1 252212Z 13015KT 36/M02 A2997 RMK A01 T03601020  RH  009%=      5-min Rain = 0
KHO1 252213Z 13015KT 36/M02 A2997 RMK A01 T03551021  RH  009%=      5-min Rain = 0
KHO1 252214Z 14015KT 35/M02 A2997 RMK A01 T03541021  RH  009%=      5-min Rain = 0
KHO1 252215Z 14012KT 36/M02 A2997 RMK A01 T03551019  RH  009%=      5-min Rain = 0
KHO1 252216Z 14011KT 36/M02 A2997 RMK A01 T03571020  RH  009%=      5-min Rain = 0
KHO1 252217Z 14007KT 36/M02 A2997 RMK A01 T03571021  RH  009%=      5-min Rain = 0
KHO1 252218Z 14002KT 36/M02 A2997 RMK A01 T03561022  RH  009%=      5-min Rain = 0
KHO1 252219Z 17001KT 36/M02 A2997 RMK A01 T03571022  RH  009%=      5-min Rain = 0
KHO1 252220Z 09001KT 36/M02 A2997 RMK A01 T03591018  RH  009%=      5-min Rain = 0
KHO1 252221Z 15003KT 36/M02 A2997 RMK A01 T03601020  RH  009%=      5-min Rain = 0
KHO1 252222Z 16006KT 36/M02 A2997 RMK A01 T03591021  RH  009%=      5-min Rain = 0
KHO1 252223Z 18004KT 36/M02 A2997 RMK A01 T03571020  RH  009%=      5-min Rain = 0
KHO1 252224Z 18002KT 36/M02 A2997 RMK A01 T03581020  RH  009%=      5-min Rain = 0
KHO1 252225Z 18005KT 36/M02 A2997 RMK A01 T03591019  RH  009%=      5-min Rain = 0
KHO1 252226Z 14008KT 36/M02 A2997 RMK A01 T03591019  RH  009%=      5-min Rain = 0
KHO1 252227Z 13012KT 36/M02 A2997 RMK A01 T03621018  RH  009%=      5-min Rain = 0
KHO1 252228Z 13012KT 36/M02 A2997 RMK A01 T03621019  RH  009%=      5-min Rain = 0
KHO1 252229Z 16011KT 36/M02 A2997 RMK A01 T03631020  RH  009%=      5-min Rain = 0
KHO1 252230Z 16010KT 36/M02 A2997 RMK A01 T03611021  RH  009%=      5-min Rain = 0
KHO1 252231Z 16009G14KT 36/M02 A2997 RMK A01 T03581024  RH  009%=      5-min Rain = 0
KHO1 252232Z 15010KT 36/M02 A2997 RMK A01 T03591023  RH  009%=      5-min Rain = 0
KHO1 252233Z 16005KT 36/M02 A2997 RMK A01 T03591024  RH  009%=      5-min Rain = 0
KHO1 252234Z 18006KT 36/M03 A2997 RMK A01 T03581025  RH  009%=      5-min Rain = 0
KHO1 252235Z 18007KT 36/M03 A2997 RMK A01 T03571025  RH  009%=      5-min Rain = 0
KHO1 252236Z 22007KT 36/M02 A2996 RMK A01 T03551023  RH  009%=      5-min Rain = 0
KHO1 252237Z 22005KT 35/M02 A2996 RMK A01 T03531024  RH  009%=      5-min Rain = 0
KHO1 252238Z 15008KT 35/M02 A2996 RMK A01 T03521023  RH  009%=      5-min Rain = 0
KHO1 252239Z 14008KT 35/M02 A2996 RMK A01 T03511024  RH  009%=      5-min Rain = 0
KHO1 252240Z 15006KT 35/M02 A2996 RMK A01 T03491024  RH  009%=      5-min Rain = 0
KHO1 252241Z 16003KT 35/M02 A2996 RMK A01 T03481023  RH  009%=      5-min Rain = 0
KHO1 252242Z 12002KT 35/M02 A2996 RMK A01 T03501020  RH  009%=      5-min Rain = 0
KHO1 252243Z 11000KT 35/M02 A2996 RMK A01 T03531018  RH  009%=      5-min Rain = 0
KHO1 252244Z 13001KT 36/M02 A2996 RMK A01 T03571021  RH  009%=      5-min Rain = 0
KHO1 252245Z 12003KT 36/M02 A2996 RMK A01 T03581019  RH  009%=      5-min Rain = 0
KHO1 252246Z 13004KT 36/M02 A2996 RMK A01 T03611017  RH  009%=      5-min Rain = 0
KHO1 252247Z 18008KT 36/M02 A2996 RMK A01 T03621018  RH  009%=      5-min Rain = 0
KHO1 252248Z 16011KT 36/M02 A2996 RMK A01 T03601017  RH  009%=      5-min Rain = 0
KHO1 252249Z 14011KT 36/M02 A2996 RMK A01 T03621017  RH  009%=      5-min Rain = 0
KHO1 252250Z 16012KT 36/M02 A2996 RMK A01 T03621019  RH  009%=      5-min Rain = 0
KHO1 252251Z 15011KT 36/M02 A2996 RMK A01 T03591020  RH  009%=      5-min Rain = 0
KHO1 252252Z 16008KT 36/M02 A2996 RMK A01 T03571021  RH  009%=      5-min Rain = 0
KHO1 252253Z 15007KT 36/M02 A2996 RMK A01 T03601015  RH  009%=      5-min Rain = 0
KHO1 252254Z 15011KT 36/M02 A2996 RMK A01 T03641016  RH  009%=      5-min Rain = 0
KHO1 252255Z 15010KT 36/M02 A2996 RMK A01 T03641018  RH  009%=      5-min Rain = 0
KHO1 252256Z 15011KT 36/M02 A2996 RMK A01 T03621020  RH  009%=      5-min Rain = 0
KHO1 252257Z 15009KT 36/M02 A2996 RMK A01 T03611020  RH  009%=      5-min Rain = 0
KHO1 252258Z 14007KT 36/M02 A2996 RMK A01 T03621020  RH  009%=      5-min Rain = 0
KHO1 252259Z 15008KT 36/M02 A2996 RMK A01 T03591022  RH  009%=      5-min Rain = 0
KHO1 252300Z 15006KT 36/M02 A2996 RMK A01 T03561022  RH  009%=      5-min Rain = 0
KHO1 252301Z 18006KT 36/M02 A2996 RMK A01 T03551024  RH  009%=      5-min Rain = 0
KHO1 252302Z 16003KT 36/M02 A2996 RMK A01 T03551023  RH  009%=      5-min Rain = 0
KHO1 252303Z 18004KT 36/M02 A2996 RMK A01 T03571020  RH  009%=      5-min Rain = 0
KHO1 252304Z 20005KT 36/M02 A2996 RMK A01 T03591020  RH  009%=      5-min Rain = 0
KHO1 252305Z 21004KT 36/M02 A2996 RMK A01 T03591024  RH  009%=      5-min Rain = 0
KHO1 252306Z 18003KT 36/M02 A2996 RMK A01 T03591023  RH  009%=      5-min Rain = 0
KHO1 252307Z 19006KT 36/M02 A2996 RMK A01 T03591021  RH  009%=      5-min Rain = 0
KHO1 252308Z 20008KT 36/M02 A2996 RMK A01 T03611020  RH  009%=      5-min Rain = 0
KHO1 252309Z 19008KT 36/M02 A2996 RMK A01 T03611022  RH  009%=      5-min Rain = 0
KHO1 252310Z 18008KT 36/M02 A2996 RMK A01 T03591023  RH  009%=      5-min Rain = 0
KHO1 252311Z 18007KT 36/M02 A2996 RMK A01 T03561024  RH  009%=      5-min Rain = 0
KHO1 252312Z 19004KT 36/M02 A2996 RMK A01 T03551022  RH  009%=      5-min Rain = 0
KHO1 252313Z 23005KT 35/M02 A2996 RMK A01 T03541022  RH  009%=      5-min Rain = 0
KHO1 252314Z 24006KT 35/M02 A2996 RMK A01 T03521024  RH  009%=      5-min Rain = 0
KHO1 252315Z 22006KT 35/M03 A2996 RMK A01 T03501025  RH  009%=      5-min Rain = 0
KHO1 252316Z 16005KT 35/M03 A2996 RMK A01 T03501025  RH  009%=      5-min Rain = 0
KHO1 252317Z 16007KT 35/M03 A2996 RMK A01 T03511025  RH  009%=      5-min Rain = 0
KHO1 252318Z 13007KT 35/M02 A2996 RMK A01 T03541023  RH  009%=      5-min Rain = 0
KHO1 252319Z 12006KT 36/M03 A2996 RMK A01 T03561025  RH  009%=      5-min Rain = 0
KHO1 252320Z 13005KT 36/M02 A2996 RMK A01 T03581024  RH  009%=      5-min Rain = 0
KHO1 252321Z 13005KT 36/M03 A2996 RMK A01 T03591028  RH  008%=      5-min Rain = 0
KHO1 252322Z 15003KT 36/M03 A2996 RMK A01 T03571026  RH  009%=      5-min Rain = 0
KHO1 252323Z 16005KT 36/M03 A2996 RMK A01 T03581025  RH  009%=      5-min Rain = 0
KHO1 252324Z 14004KT 36/M02 A2996 RMK A01 T03601020  RH  009%=      5-min Rain = 0
KHO1 252325Z 15005KT 36/M02 A2996 RMK A01 T03631021  RH  009%=      5-min Rain = 0
KHO1 252326Z 14005G10KT 36/M02 A2996 RMK A01 T03621024  RH  009%=      5-min Rain = 0
KHO1 252327Z 15012KT 36/M02 A2995 RMK A01 T03621018  RH  009%=      5-min Rain = 0
KHO1 252328Z 20009G14KT 36/M02 A2996 RMK A01 T03641018  RH  009%=      5-min Rain = 0
KHO1 252329Z 17010KT 36/M02 A2996 RMK A01 T03621017  RH  009%=      5-min Rain = 0
KHO1 252330Z 16010KT 36/M02 A2996 RMK A01 T03631015  RH  009%=      5-min Rain = 0
KHO1 252331Z 17008KT 36/M02 A2996 RMK A01 T03601017  RH  009%=      5-min Rain = 0
KHO1 252332Z 14007KT 36/M02 A2996 RMK A01 T03591017  RH  009%=      5-min Rain = 0
KHO1 252333Z 14006KT 36/M02 A2996 RMK A01 T03591016  RH  009%=      5-min Rain = 0
KHO1 252334Z 14007KT 36/M02 A2996 RMK A01 T03581019  RH  009%=      5-min Rain = 0
KHO1 252335Z 16005KT 36/M02 A2995 RMK A01 T03551020  RH  009%=      5-min Rain = 0
KHO1 252336Z 17006KT 36/M02 A2995 RMK A01 T03551018  RH  009%=      5-min Rain = 0
KHO1 252337Z 16009KT 36/M02 A2996 RMK A01 T03551018  RH  009%=      5-min Rain = 0
KHO1 252338Z 17008KT 36/M02 A2996 RMK A01 T03551021  RH  009%=      5-min Rain = 0
KHO1 252339Z 17006KT 36/M02 A2996 RMK A01 T03551015  RH  009%=      5-min Rain = 0
KHO1 252340Z 16007KT 36/M01 A2995 RMK A01 T03551009  RH  010%=      5-min Rain = 0
KHO1 252341Z 13012KT 36/02 A2995 RMK A01 T03570016  RH  012%=      5-min Rain = 0
KHO1 252342Z 14016G22KT 36/03 A2996 RMK A01 T03560025  RH  013%=      5-min Rain = 0
KHO1 252343Z 13017KT 35/03 A2995 RMK A01 T03510030  RH  013%=      5-min Rain = 0
KHO1 252344Z 13013KT 35/03 A2995 RMK A01 T03490032  RH  014%=      5-min Rain = 0
KHO1 252345Z 13012G17KT 35/04 A2995 RMK A01 T03490036  RH  014%=      5-min Rain = 0
KHO1 252346Z 12018KT 35/04 A2995 RMK A01 T03480036  RH  014%=      5-min Rain = 0
KHO1 252347Z 12018KT 35/04 A2995 RMK A01 T03450036  RH  014%=      5-min Rain = 0
KHO1 252348Z 12019KT 34/04 A2995 RMK A01 T03420036  RH  015%=      5-min Rain = 0
KHO1 252349Z 12017KT 34/04 A2995 RMK A01 T03410036  RH  015%=      5-min Rain = 0
KHO1 252350Z 11016G21KT 34/04 A2995 RMK A01 T03410036  RH  015%=      5-min Rain = 0
KHO1 252351Z 11018G23KT 34/04 A2995 RMK A01 T03410035  RH  015%=      5-min Rain = 0
KHO1 252352Z 13020KT 34/04 A2995 RMK A01 T03410036  RH  015%=      5-min Rain = 0
KHO1 252353Z 12016KT 34/04 A2995 RMK A01 T03410036  RH  015%=      5-min Rain = 0
KHO1 252354Z 13016G21KT 34/04 A2995 RMK A01 T03400037  RH  015%=      5-min Rain = 0
KHO1 252355Z 13013KT 34/04 A2995 RMK A01 T03400038  RH  015%=      5-min Rain = 0
KHO1 252356Z 13018G23KT 34/04 A2995 RMK A01 T03400037  RH  015%=      5-min Rain = 0
KHO1 252357Z 12017KT 34/04 A2995 RMK A01 T03390037  RH  015%=      5-min Rain = 0
KHO1 252358Z 13013KT 34/04 A2996 RMK A01 T03390037  RH  015%=      5-min Rain = 0
KHO1 252359Z 12012KT 34/04 A2996 RMK A01 T03390038  RH  015%=      5-min Rain = 0
KHO1 260000Z 12013KT 34/04 A2995 RMK A01 T03380037  RH  015%=      5-min Rain = 0
KHO1 260001Z 12012KT 34/04 A2995 RMK A01 T03380037  RH  015%=      5-min Rain = 0
KHO1 260002Z 12011KT 34/04 A2995 RMK A01 T03380036  RH  015%=      5-min Rain = 0
KHO1 260003Z 13013G18KT 34/03 A2995 RMK A01 T03380032  RH  015%=      5-min Rain = 0
KHO1 260004Z 13012KT 34/03 A2995 RMK A01 T03380031  RH  015%=      5-min Rain = 0
KHO1 260005Z 13014KT 34/03 A2995 RMK A01 T03390032  RH  015%=      5-min Rain = 0
KHO1 260006Z 12015KT 34/03 A2995 RMK A01 T03390030  RH  014%=      5-min Rain = 0
KHO1 260007Z 13012KT 34/03 A2995 RMK A01 T03380031  RH  014%=      5-min Rain = 0
KHO1 260008Z 13013KT 34/03 A2995 RMK A01 T03380030  RH  014%=      5-min Rain = 0
KHO1 260009Z 12012KT 34/03 A2995 RMK A01 T03380029  RH  014%=      5-min Rain = 0
KHO1 260010Z 13015KT 34/03 A2995 RMK A01 T03380028  RH  014%=      5-min Rain = 0
KHO1 260011Z 13017KT 34/03 A2995 RMK A01 T03380027  RH  014%=      5-min Rain = 0
KHO1 260012Z 14016KT 34/03 A2995 RMK A01 T03390025  RH  014%=      5-min Rain = 0
KHO1 260013Z 15013G18KT 34/03 A2995 RMK A01 T03390025  RH  014%=      5-min Rain = 0
KHO1 260014Z 16015KT 34/03 A2995 RMK A01 T03390025  RH  014%=      5-min Rain = 0
KHO1 260015Z 16014KT 34/03 A2995 RMK A01 T03380026  RH  014%=      5-min Rain = 0
KHO1 260016Z 15012KT 34/03 A2995 RMK A01 T03380026  RH  014%=      5-min Rain = 0
KHO1 260017Z 15013KT 34/03 A2995 RMK A01 T03380026  RH  014%=      5-min Rain = 0
KHO1 260018Z 15018KT 34/03 A2996 RMK A01 T03380025  RH  014%=      5-min Rain = 0
KHO1 260019Z 14017KT 34/02 A2996 RMK A01 T03370024  RH  014%=      5-min Rain = 0
KHO1 260020Z 14018KT 34/02 A2995 RMK A01 T03370023  RH  014%=      5-min Rain = 0
KHO1 260021Z 15018KT 34/02 A2996 RMK A01 T03370024  RH  014%=      5-min Rain = 0
KHO1 260022Z 15015KT 34/02 A2996 RMK A01 T03370023  RH  014%=      5-min Rain = 0
KHO1 260023Z 15017KT 34/02 A2996 RMK A01 T03370023  RH  014%=      5-min Rain = 0
KHO1 260024Z 16016KT 34/02 A2996 RMK A01 T03370022  RH  014%=      5-min Rain = 0
KHO1 260025Z 16015KT 34/02 A2996 RMK A01 T03370023  RH  014%=      5-min Rain = 0
KHO1 260026Z 15016KT 34/02 A2996 RMK A01 T03370023  RH  014%=      5-min Rain = 0
KHO1 260027Z 15013KT 34/03 A2996 RMK A01 T03380025  RH  014%=      5-min Rain = 0
KHO1 260028Z 14016G22KT 34/03 A2996 RMK A01 T03400025  RH  014%=      5-min Rain = 0
KHO1 260029Z 15012KT 34/03 A2996 RMK A01 T03410025  RH  014%=      5-min Rain = 0
KHO1 260030Z 15013KT 34/03 A2996 RMK A01 T03430026  RH  014%=      5-min Rain = 0
KHO1 260031Z 15013KT 34/03 A2996 RMK A01 T03430026  RH  014%=      5-min Rain = 0
KHO1 260032Z 16015KT 34/03 A2996 RMK A01 T03430025  RH  014%=      5-min Rain = 0
KHO1 260033Z 16016G21KT 34/03 A2996 RMK A01 T03430025  RH  014%=      5-min Rain = 0
KHO1 260034Z 16013KT 34/03 A2996 RMK A01 T03430026  RH  014%=      5-min Rain = 0
KHO1 260035Z 15015KT 34/03 A2996 RMK A01 T03420025  RH  014%=      5-min Rain = 0
KHO1 260036Z 15013KT 34/03 A2996 RMK A01 T03410026  RH  014%=      5-min Rain = 0
KHO1 260037Z 15013KT 34/03 A2996 RMK A01 T03400025  RH  014%=      5-min Rain = 0
KHO1 260038Z 15015KT 34/03 A2996 RMK A01 T03400025  RH  014%=      5-min Rain = 0
KHO1 260039Z 14016KT 34/03 A2996 RMK A01 T03400025  RH  014%=      5-min Rain = 0
KHO1 260040Z 14016KT 34/03 A2996 RMK A01 T03400026  RH  014%=      5-min Rain = 0
KHO1 260041Z 14016KT 34/03 A2996 RMK A01 T03400026  RH  014%=      5-min Rain = 0
KHO1 260042Z 15015KT 34/03 A2996 RMK A01 T03400025  RH  014%=      5-min Rain = 0
KHO1 260043Z 14016KT 34/02 A2996 RMK A01 T03380023  RH  014%=      5-min Rain = 0
KHO1 260044Z 15014KT 34/02 A2996 RMK A01 T03370024  RH  014%=      5-min Rain = 0
KHO1 260045Z 15013KT 34/02 A2996 RMK A01 T03370024  RH  014%=      5-min Rain = 0
KHO1 260046Z 16014KT 34/02 A2996 RMK A01 T03360024  RH  014%=      5-min Rain = 0
KHO1 260047Z 16018KT 34/02 A2996 RMK A01 T03350022  RH  014%=      5-min Rain = 0
KHO1 260048Z 16018KT 34/02 A2996 RMK A01 T03350022  RH  014%=      5-min Rain = 0
KHO1 260049Z 16021KT 33/02 A2996 RMK A01 T03340022  RH  014%=      5-min Rain = 0
KHO1 260050Z 16017KT 33/02 A2996 RMK A01 T03330022  RH  014%=      5-min Rain = 0
KHO1 260051Z 16015KT 33/02 A2996 RMK A01 T03330023  RH  014%=      5-min Rain = 0
KHO1 260052Z 14014KT 33/02 A2996 RMK A01 T03330023  RH  014%=      5-min Rain = 0
KHO1 260053Z 15016G22KT 33/02 A2996 RMK A01 T03320023  RH  014%=      5-min Rain = 0
KHO1 260054Z 15015KT 33/02 A2996 RMK A01 T03320023  RH  014%=      5-min Rain = 0
KHO1 260055Z 15011KT 33/02 A2996 RMK A01 T03320023  RH  014%=      5-min Rain = 0
KHO1 260056Z 15014G19KT 33/02 A2996 RMK A01 T03320023  RH  014%=      5-min Rain = 0
KHO1 260057Z 16013KT 33/02 A2996 RMK A01 T03320022  RH  014%=      5-min Rain = 0
KHO1 260058Z 15013KT 33/02 A2996 RMK A01 T03320023  RH  014%=      5-min Rain = 0
KHO1 260059Z 16014KT 33/02 A2996 RMK A01 T03320022  RH  014%=      5-min Rain = 0
KHO1 260100Z 15017KT 33/02 A2996 RMK A01 T03320022  RH  014%=      5-min Rain = 0
KHO1 260101Z 15018KT 33/02 A2996 RMK A01 T03310022  RH  014%=      5-min Rain = 0
KHO1 260102Z 15015KT 33/02 A2996 RMK A01 T03310022  RH  014%=      5-min Rain = 0
KHO1 260103Z 15013KT 33/02 A2996 RMK A01 T03310022  RH  014%=      5-min Rain = 0
KHO1 260104Z 15014KT 33/02 A2996 RMK A01 T03310022  RH  014%=      5-min Rain = 0
KHO1 260105Z 15015G20KT 33/02 A2996 RMK A01 T03310023  RH  014%=      5-min Rain = 0
KHO1 260106Z 15016KT 33/03 A2996 RMK A01 T03300025  RH  015%=      5-min Rain = 0
KHO1 260107Z 14012KT 33/03 A2996 RMK A01 T03300029  RH  015%=      5-min Rain = 0
KHO1 260108Z 14016KT 33/05 A2996 RMK A01 T03290046  RH  017%=      5-min Rain = 0
KHO1 260109Z 16015KT 33/05 A2996 RMK A01 T03280050  RH  018%=      5-min Rain = 0
KHO1 260110Z 15016G23KT 33/06 A2996 RMK A01 T03280055  RH  018%=      5-min Rain = 0
KHO1 260111Z 15022KT 33/07 A2996 RMK A01 T03270068  RH  020%=      5-min Rain = 0
KHO1 260112Z 15019G25KT 33/07 A2996 RMK A01 T03260071  RH  020%=      5-min Rain = 0
KHO1 260113Z 15020KT 33/07 A2997 RMK A01 T03260073  RH  021%=      5-min Rain = 0
KHO1 260114Z 15017KT 33/07 A2997 RMK A01 T03250073  RH  021%=      5-min Rain = 0
KHO1 260115Z 16016KT 33/07 A2997 RMK A01 T03260074  RH  021%=      5-min Rain = 0
KHO1 260116Z 17018G24KT 33/08 A2997 RMK A01 T03250075  RH  021%=      5-min Rain = 0
KHO1 260117Z 16019G24KT 33/08 A2997 RMK A01 T03250076  RH  021%=      5-min Rain = 0
KHO1 260118Z 16021KT 32/08 A2997 RMK A01 T03240078  RH  022%=      5-min Rain = 0
KHO1 260119Z 16019KT 32/08 A2997 RMK A01 T03240078  RH  022%=      5-min Rain = 0
KHO1 260120Z 15019G24KT 32/08 A2997 RMK A01 T03230077  RH  022%=      5-min Rain = 0
KHO1 260121Z 16018G24KT 32/08 A2997 RMK A01 T03230075  RH  021%=      5-min Rain = 0
KHO1 260122Z 17017KT 32/07 A2998 RMK A01 T03230072  RH  021%=      5-min Rain = 0
KHO1 260123Z 16017KT 32/07 A2998 RMK A01 T03230073  RH  021%=      5-min Rain = 0
KHO1 260124Z 16021G29KT 32/08 A2997 RMK A01 T03220077  RH  022%=      5-min Rain = 0
KHO1 260125Z 16023KT 32/08 A2998 RMK A01 T03210080  RH  022%=      5-min Rain = 0
KHO1 260126Z 16021KT 32/08 A2998 RMK A01 T03200081  RH  023%=      5-min Rain = 0
KHO1 260127Z 15021G27KT 32/08 A2998 RMK A01 T03190084  RH  023%=      5-min Rain = 0
KHO1 260128Z 16025KT 32/09 A2998 RMK A01 T03180086  RH  024%=      5-min Rain = 0
KHO1 260129Z 16022G27KT 32/09 A2998 RMK A01 T03170087  RH  024%=      5-min Rain = 0
KHO1 260130Z 16021G26KT 32/09 A2998 RMK A01 T03160087  RH  024%=      5-min Rain = 0
KHO1 260131Z 16021G26KT 32/09 A2998 RMK A01 T03160087  RH  024%=      5-min Rain = 0
KHO1 260132Z 16021G27KT 32/09 A2998 RMK A01 T03160088  RH  024%=      5-min Rain = 0
KHO1 260133Z 16020KT 32/09 A2998 RMK A01 T03150088  RH  024%=      5-min Rain = 0
KHO1 260134Z 17023G31KT 32/09 A2998 RMK A01 T03150089  RH  025%=      5-min Rain = 0
KHO1 260135Z 17027G35KT 31/10 A2999 RMK A01 T03100098  RH  027%=      5-min Rain = 0
KHO1 260136Z 17027G34KT 30/10 A2999 RMK A01 T03010104  RH  030%=      5-min Rain = 0
KHO1 260137Z 18027KT 29/11 A2999 RMK A01 T02940107  RH  031%=      5-min Rain = 0
KHO1 260138Z 18027KT 29/11 A2999 RMK A01 T02880111  RH  033%=      5-min Rain = 0
KHO1 260139Z 17025G31KT 28/12 A2999 RMK A01 T02820115  RH  036%=      5-min Rain = 0
KHO1 260140Z 17027KT 28/12 A2999 RMK A01 T02780117  RH  037%=      5-min Rain = 0
KHO1 260141Z 17027G32KT 28/12 A2999 RMK A01 T02750117  RH  037%=      5-min Rain = 0
KHO1 260142Z 17024G29KT 27/12 A2999 RMK A01 T02740118  RH  038%=      5-min Rain = 0
KHO1 260143Z 16026KT 27/12 A2999 RMK A01 T02710121  RH  039%=      5-min Rain = 0
KHO1 260144Z 17024G29KT 27/12 A2999 RMK A01 T02690122  RH  040%=      5-min Rain = 0
KHO1 260145Z 17023G30KT 27/12 A2999 RMK A01 T02680121  RH  040%=      5-min Rain = 0
KHO1 260146Z 16022G27KT 27/12 A2999 RMK A01 T02680121  RH  040%=      5-min Rain = 0
KHO1 260147Z 16020KT 27/12 A2999 RMK A01 T02680120  RH  040%=      5-min Rain = 0
KHO1 260148Z 16023KT 27/12 A2999 RMK A01 T02680115  RH  039%=      5-min Rain = 0
KHO1 260149Z 16025G30KT 27/11 A30 RMK A01 T02680113  RH  038%=      5-min Rain = 0
KHO1 260150Z 16026KT 27/11 A30 RMK A01 T02650114  RH  039%=      5-min Rain = 0
KHO1 260151Z 16023G28KT 26/12 A30 RMK A01 T02630116  RH  040%=      5-min Rain = 0
KHO1 260152Z 16022KT 26/12 A30 RMK A01 T02620117  RH  040%=      5-min Rain = 0
KHO1 260153Z 15023KT 26/12 A30 RMK A01 T02620116  RH  040%=      5-min Rain = 0
KHO1 260154Z 15022G28KT 26/12 A30 RMK A01 T02620118  RH  041%=      5-min Rain = 0
KHO1 260155Z 15021KT 26/12 A30 RMK A01 T02620121  RH  042%=      5-min Rain = 0
KHO1 260156Z 14021KT 26/12 A30 RMK A01 T02610124  RH  043%=      5-min Rain = 0
KHO1 260157Z 14020KT 26/13 A30 RMK A01 T02610125  RH  043%=      5-min Rain = 0
KHO1 260158Z 15023G30KT 26/13 A3001 RMK A01 T02620125  RH  043%=      5-min Rain = 0
KHO1 260159Z 14020KT 26/12 A3001 RMK A01 T02630122  RH  042%=      5-min Rain = 0
KHO1 260200Z 14019G24KT 26/12 A3001 RMK A01 T02630119  RH  041%=      5-min Rain = 0
KHO1 260201Z 14018G23KT 26/11 A3001 RMK A01 T02630114  RH  039%=      5-min Rain = 0
KHO1 260202Z 14020KT 26/11 A3001 RMK A01 T02630110  RH  038%=      5-min Rain = 0
KHO1 260203Z 14023G30KT 26/11 A3001 RMK A01 T02630108  RH  038%=      5-min Rain = 0
KHO1 260204Z 14022G27KT 26/11 A3001 RMK A01 T02630107  RH  038%=      5-min Rain = 0
KHO1 260205Z 14019G24KT 26/11 A3001 RMK A01 T02630108  RH  038%=      5-min Rain = 0
KHO1 260206Z 13025KT 26/11 A3001 RMK A01 T02630109  RH  038%=      5-min Rain = 0
KHO1 260207Z 13022G28KT 26/11 A3001 RMK A01 T02620111  RH  039%=      5-min Rain = 0
KHO1 260208Z 13020KT 26/11 A30 RMK A01 T02600112  RH  039%=      5-min Rain = 0
KHO1 260209Z 13021G27KT 26/11 A30 RMK A01 T02590113  RH  040%=      5-min Rain = 0
KHO1 260210Z 13021G27KT 26/11 A30 RMK A01 T02580113  RH  040%=      5-min Rain = 0
KHO1 260211Z 13018KT 26/11 A30 RMK A01 T02580113  RH  040%=      5-min Rain = 0
KHO1 260212Z 13018G23KT 26/11 A30 RMK A01 T02580113  RH  040%=      5-min Rain = 0
KHO1 260213Z 12020KT 26/11 A30 RMK A01 T02570114  RH  041%=      5-min Rain = 0
KHO1 260214Z 12017KT 26/12 A30 RMK A01 T02560115  RH  041%=      5-min Rain = 0
KHO1 260215Z 12016KT 26/12 A30 RMK A01 T02550117  RH  042%=      5-min Rain = 0
KHO1 260216Z 12016KT 25/12 A30 RMK A01 T02540119  RH  043%=      5-min Rain = 0
KHO1 260217Z 13013G22KT 25/12 A30 RMK A01 T02540121  RH  043%=      5-min Rain = 0
KHO1 260218Z 12016KT 25/12 A30 RMK A01 T02540122  RH  044%=      5-min Rain = 0
KHO1 260219Z 13016KT 25/12 A30 RMK A01 T02530122  RH  044%=      5-min Rain = 0
KHO1 260220Z 13015KT 25/12 A30 RMK A01 T02530122  RH  044%=      5-min Rain = 0
KHO1 260221Z 13014KT 25/12 A30 RMK A01 T02540122  RH  044%=      5-min Rain = 0
KHO1 260222Z 13014KT 26/12 A3001 RMK A01 T02550122  RH  043%=      5-min Rain = 0
KHO1 260223Z 13014G19KT 26/12 A3001 RMK A01 T02550121  RH  043%=      5-min Rain = 0
KHO1 260224Z 12016G21KT 26/12 A3001 RMK A01 T02570120  RH  043%=      5-min Rain = 0
KHO1 260225Z 12014KT 26/12 A3001 RMK A01 T02580121  RH  042%=      5-min Rain = 0
KHO1 260226Z 12014KT 26/12 A3001 RMK A01 T02580122  RH  043%=      5-min Rain = 0
KHO1 260227Z 12013KT 26/12 A3001 RMK A01 T02570124  RH  044%=      5-min Rain = 0
KHO1 260228Z 12013KT 26/13 A3001 RMK A01 T02560125  RH  044%=      5-min Rain = 0
KHO1 260229Z 13013KT 26/12 A3001 RMK A01 T02560124  RH  044%=      5-min Rain = 0
KHO1 260230Z 13013KT 26/12 A3002 RMK A01 T02560124  RH  044%=      5-min Rain = 0
KHO1 260231Z 13013KT 26/12 A3002 RMK A01 T02570124  RH  044%=      5-min Rain = 0
KHO1 260232Z 14012KT 26/12 A3002 RMK A01 T02570124  RH  044%=      5-min Rain = 0
KHO1 260233Z 13013KT 26/12 A3002 RMK A01 T02570124  RH  044%=      5-min Rain = 0
KHO1 260234Z 13015KT 26/12 A3002 RMK A01 T02570124  RH  044%=      5-min Rain = 0
KHO1 260235Z 14013KT 26/12 A3002 RMK A01 T02570124  RH  044%=      5-min Rain = 0
KHO1 260236Z 15013KT 26/13 A3003 RMK A01 T02580125  RH  044%=      5-min Rain = 0
KHO1 260237Z 16012KT 26/13 A3003 RMK A01 T02600125  RH  043%=      5-min Rain = 0
KHO1 260238Z 16013KT 26/12 A3003 RMK A01 T02610124  RH  043%=      5-min Rain = 0
KHO1 260239Z 16015KT 26/12 A3003 RMK A01 T02640124  RH  042%=      5-min Rain = 0
KHO1 260240Z 17016KT 27/13 A3003 RMK A01 T02670125  RH  041%=      5-min Rain = 0
KHO1 260241Z 17016KT 27/13 A3003 RMK A01 T02680126  RH  041%=      5-min Rain = 0
KHO1 260242Z 17012KT 27/13 A3003 RMK A01 T02680125  RH  041%=      5-min Rain = 0
KHO1 260243Z 16019KT 27/12 A3003 RMK A01 T02680123  RH  041%=      5-min Rain = 0
KHO1 260244Z 17016KT 27/12 A3003 RMK A01 T02680121  RH  040%=      5-min Rain = 0
KHO1 260245Z 17014KT 27/12 A3003 RMK A01 T02680120  RH  040%=      5-min Rain = 0
KHO1 260246Z 17012KT 27/12 A3004 RMK A01 T02670120  RH  040%=      5-min Rain = 0
KHO1 260247Z 17014KT 27/12 A3004 RMK A01 T02660120  RH  040%=      5-min Rain = 0
KHO1 260248Z 17014KT 27/12 A3003 RMK A01 T02660120  RH  040%=      5-min Rain = 0
KHO1 260249Z 17013KT 27/12 A3004 RMK A01 T02660121  RH  041%=      5-min Rain = 0
KHO1 260250Z 17014KT 27/12 A3004 RMK A01 T02650121  RH  041%=      5-min Rain = 0
KHO1 260251Z 17016KT 27/12 A3004 RMK A01 T02650122  RH  041%=      5-min Rain = 0
KHO1 260252Z 17014KT 26/12 A3004 RMK A01 T02640123  RH  041%=      5-min Rain = 0
KHO1 260253Z 16015KT 26/12 A3004 RMK A01 T02640124  RH  042%=      5-min Rain = 0
KHO1 260254Z 16014KT 26/13 A3004 RMK A01 T02630125  RH  042%=      5-min Rain = 0
KHO1 260255Z 16016KT 26/13 A3004 RMK A01 T02620125  RH  043%=      5-min Rain = 0
KHO1 260256Z 16015G20KT 26/13 A3004 RMK A01 T02620126  RH  043%=      5-min Rain = 0
KHO1 260257Z 16021G26KT 26/13 A3004 RMK A01 T02610128  RH  044%=      5-min Rain = 0
KHO1 260258Z 17014KT 26/13 A3004 RMK A01 T02610129  RH  044%=      5-min Rain = 0
KHO1 260259Z 17018KT 26/13 A3004 RMK A01 T02610130  RH  044%=      5-min Rain = 0
KHO1 260300Z 16017G22KT 26/13 A3004 RMK A01 T02600129  RH  044%=      5-min Rain = 0
KHO1 260301Z 17016G21KT 26/13 A3004 RMK A01 T02590129  RH  044%=      5-min Rain = 0
KHO1 260302Z 15015KT 26/13 A3003 RMK A01 T02590130  RH  045%=      5-min Rain = 0
KHO1 260303Z 17018KT 26/13 A3003 RMK A01 T02580129  RH  045%=      5-min Rain = 0
KHO1 260304Z 16015KT 26/13 A3004 RMK A01 T02590129  RH  045%=      5-min Rain = 0
KHO1 260305Z 15014KT 26/13 A3003 RMK A01 T02580130  RH  045%=      5-min Rain = 0
KHO1 260306Z 15015KT 26/13 A3003 RMK A01 T02570131  RH  045%=      5-min Rain = 0
KHO1 260307Z 15014KT 26/13 A3003 RMK A01 T02570130  RH  045%=      5-min Rain = 0
KHO1 260308Z 15012KT 26/13 A3003 RMK A01 T02560130  RH  046%=      5-min Rain = 0
KHO1 260309Z 15013KT 26/13 A3004 RMK A01 T02560131  RH  046%=      5-min Rain = 0
KHO1 260310Z 15014KT 26/13 A3004 RMK A01 T02550131  RH  046%=      5-min Rain = 0
KHO1 260311Z 15012KT 26/13 A3004 RMK A01 T02550132  RH  046%=      5-min Rain = 0
KHO1 260312Z 15010KT 25/13 A3004 RMK A01 T02540131  RH  046%=      5-min Rain = 0
KHO1 260313Z 15012KT 25/13 A3004 RMK A01 T02540130  RH  046%=      5-min Rain = 0
KHO1 260314Z 15013KT 25/13 A3004 RMK A01 T02540130  RH  046%=      5-min Rain = 0
KHO1 260315Z 15012G17KT 25/13 A3004 RMK A01 T02530129  RH  046%=      5-min Rain = 0
KHO1 260316Z 15014KT 25/13 A3004 RMK A01 T02530128  RH  046%=      5-min Rain = 0
KHO1 260317Z 15014KT 25/13 A3004 RMK A01 T02530127  RH  045%=      5-min Rain = 0
KHO1 260318Z 15012KT 25/13 A3004 RMK A01 T02540127  RH  045%=      5-min Rain = 0
KHO1 260319Z 14011KT 25/13 A3004 RMK A01 T02540126  RH  045%=      5-min Rain = 0
KHO1 260320Z 14012KT 25/12 A3004 RMK A01 T02540124  RH  044%=      5-min Rain = 0
KHO1 260321Z 15012KT 26/12 A3004 RMK A01 T02550121  RH  043%=      5-min Rain = 0
KHO1 260322Z 15011KT 26/12 A3004 RMK A01 T02570120  RH  042%=      5-min Rain = 0
KHO1 260323Z 15012KT 26/12 A3004 RMK A01 T02580117  RH  042%=      5-min Rain = 0
KHO1 260324Z 15012KT 26/12 A3004 RMK A01 T02590117  RH  041%=      5-min Rain = 0
KHO1 260325Z 15013KT 26/12 A3004 RMK A01 T02590116  RH  041%=      5-min Rain = 0
KHO1 260326Z 15013KT 26/12 A3004 RMK A01 T02600116  RH  041%=      5-min Rain = 0
KHO1 260327Z 16012KT 26/12 A3004 RMK A01 T02600116  RH  041%=      5-min Rain = 0
KHO1 260328Z 15010G16KT 26/12 A3004 RMK A01 T02600116  RH  041%=      5-min Rain = 0
KHO1 260329Z 15013KT 26/12 A3004 RMK A01 T02600117  RH  041%=      5-min Rain = 0
KHO1 260330Z 15012KT 26/12 A3004 RMK A01 T02600117  RH  041%=      5-min Rain = 0
KHO1 260331Z 14012KT 26/12 A3004 RMK A01 T02600117  RH  041%=      5-min Rain = 0
KHO1 260332Z 15014KT 26/12 A3004 RMK A01 T02600118  RH  041%=      5-min Rain = 0
KHO1 260333Z 15015KT 26/12 A3004 RMK A01 T02610119  RH  041%=      5-min Rain = 0
KHO1 260334Z 14012KT 26/12 A3004 RMK A01 T02610119  RH  041%=      5-min Rain = 0
KHO1 260335Z 14010KT 26/12 A3005 RMK A01 T02600118  RH  041%=      5-min Rain = 0
KHO1 260336Z 13013KT 26/12 A3005 RMK A01 T02580117  RH  041%=      5-min Rain = 0
KHO1 260337Z 13011KT 26/12 A3005 RMK A01 T02580117  RH  041%=      5-min Rain = 0
KHO1 260338Z 13009KT 26/12 A3005 RMK A01 T02570116  RH  041%=      5-min Rain = 0
KHO1 260339Z 12010KT 26/12 A3005 RMK A01 T02570116  RH  041%=      5-min Rain = 0
KHO1 260340Z 12008KT 26/12 A3005 RMK A01 T02570117  RH  041%=      5-min Rain = 0
KHO1 260341Z 12009KT 26/12 A3005 RMK A01 T02580117  RH  042%=      5-min Rain = 0
KHO1 260342Z 11009KT 26/12 A3005 RMK A01 T02580118  RH  042%=      5-min Rain = 0
KHO1 260343Z 11011KT 26/12 A3005 RMK A01 T02570121  RH  043%=      5-min Rain = 0
KHO1 260344Z 11011KT 26/12 A3005 RMK A01 T02580123  RH  043%=      5-min Rain = 0
KHO1 260345Z 11009KT 26/12 A3005 RMK A01 T02580124  RH  043%=      5-min Rain = 0
KHO1 260346Z 11008KT 26/12 A3005 RMK A01 T02570124  RH  044%=      5-min Rain = 0
KHO1 260347Z 11008KT 26/13 A3005 RMK A01 T02570125  RH  044%=      5-min Rain = 0
KHO1 260348Z 11007KT 26/13 A3005 RMK A01 T02570126  RH  044%=      5-min Rain = 0
KHO1 260349Z 11007KT 26/13 A3005 RMK A01 T02560127  RH  045%=      5-min Rain = 0
KHO1 260350Z 11008KT 26/13 A3005 RMK A01 T02560127  RH  045%=      5-min Rain = 0
KHO1 260351Z 11008KT 26/13 A3005 RMK A01 T02560128  RH  045%=      5-min Rain = 0
KHO1 260352Z 11009KT 26/13 A3006 RMK A01 T02560128  RH  045%=      5-min Rain = 0
KHO1 260353Z 11010KT 26/13 A3006 RMK A01 T02560128  RH  045%=      5-min Rain = 0
KHO1 260354Z 11009KT 26/13 A3006 RMK A01 T02560129  RH  045%=      5-min Rain = 0
KHO1 260355Z 11008KT 26/13 A3006 RMK A01 T02560130  RH  046%=      5-min Rain = 0
KHO1 260356Z 11008KT 26/13 A3006 RMK A01 T02550130  RH  046%=      5-min Rain = 0
KHO1 260357Z 11008KT 26/13 A3006 RMK A01 T02550131  RH  046%=      5-min Rain = 0
KHO1 260358Z 11010KT 26/13 A3006 RMK A01 T02550131  RH  046%=      5-min Rain = 0
KHO1 260359Z 11008KT 26/13 A3006 RMK A01 T02550131  RH  046%=      5-min Rain = 0
KHO1 260400Z 11007KT 26/13 A3006 RMK A01 T02550131  RH  046%=      5-min Rain = 0
KHO1 260401Z 10008KT 26/13 A3006 RMK A01 T02550131  RH  046%=      5-min Rain = 0
KHO1 260402Z 11008KT 25/13 A3006 RMK A01 T02540131  RH  046%=      5-min Rain = 0
KHO1 260403Z 11008KT 25/13 A3006 RMK A01 T02540132  RH  047%=      5-min Rain = 0
KHO1 260404Z 11010KT 25/13 A3006 RMK A01 T02530132  RH  047%=      5-min Rain = 0
KHO1 260405Z 11010KT 25/13 A3006 RMK A01 T02530133  RH  047%=      5-min Rain = 0
KHO1 260406Z 11009KT 25/13 A3006 RMK A01 T02530134  RH  048%=      5-min Rain = 0
KHO1 260407Z 11009KT 25/13 A3006 RMK A01 T02530134  RH  048%=      5-min Rain = 0
KHO1 260408Z 11009KT 25/14 A3006 RMK A01 T02520135  RH  048%=      5-min Rain = 0
KHO1 260409Z 12010KT 25/14 A3006 RMK A01 T02530136  RH  048%=      5-min Rain = 0
KHO1 260410Z 12010KT 25/14 A3006 RMK A01 T02540136  RH  048%=      5-min Rain = 0
KHO1 260411Z 12009KT 26/14 A3006 RMK A01 T02560136  RH  048%=      5-min Rain = 0
KHO1 260412Z 12009KT 26/14 A3006 RMK A01 T02560136  RH  047%=      5-min Rain = 0
KHO1 260413Z 12009KT 26/14 A3006 RMK A01 T02560136  RH  047%=      5-min Rain = 0
KHO1 260414Z 12011KT 26/14 A3006 RMK A01 T02570136  RH  047%=      5-min Rain = 0
KHO1 260415Z 12009KT 26/14 A3006 RMK A01 T02590136  RH  047%=      5-min Rain = 0
KHO1 260416Z 13010KT 26/14 A3007 RMK A01 T02590136  RH  046%=      5-min Rain = 0
KHO1 260417Z 13010G15KT 26/14 A3007 RMK A01 T02600135  RH  046%=      5-min Rain = 0
KHO1 260418Z 14009KT 26/14 A3007 RMK A01 T02600135  RH  046%=      5-min Rain = 0
KHO1 260419Z 14010KT 26/14 A3007 RMK A01 T02590135  RH  046%=      5-min Rain = 0
KHO1 260420Z 14012KT 26/13 A3007 RMK A01 T02600134  RH  046%=      5-min Rain = 0
KHO1 260421Z 14011KT 26/13 A3007 RMK A01 T02610134  RH  045%=      5-min Rain = 0
KHO1 260422Z 14012KT 26/13 A3007 RMK A01 T02610134  RH  045%=      5-min Rain = 0
KHO1 260423Z 14012KT 26/13 A3007 RMK A01 T02610134  RH  046%=      5-min Rain = 0
KHO1 260424Z 14009KT 26/13 A3007 RMK A01 T02600134  RH  046%=      5-min Rain = 0
KHO1 260425Z 14010KT 26/13 A3007 RMK A01 T02600134  RH  046%=      5-min Rain = 0
KHO1 260426Z 15011KT 26/13 A3007 RMK A01 T02590133  RH  046%=      5-min Rain = 0
KHO1 260427Z 15012KT 26/13 A3007 RMK A01 T02600133  RH  045%=      5-min Rain = 0
KHO1 260428Z 15011KT 26/13 A3007 RMK A01 T02600133  RH  045%=      5-min Rain = 0
KHO1 260429Z 15012KT 26/13 A3007 RMK A01 T02600132  RH  045%=      5-min Rain = 0
KHO1 260430Z 15011KT 26/13 A3007 RMK A01 T02600132  RH  045%=      5-min Rain = 0
KHO1 260431Z 14011KT 26/13 A3007 RMK A01 T02600132  RH  045%=      5-min Rain = 0
KHO1 260432Z 15010KT 26/13 A3007 RMK A01 T02600132  RH  045%=      5-min Rain = 0
KHO1 260433Z 15012KT 26/13 A3007 RMK A01 T02590132  RH  045%=      5-min Rain = 0
KHO1 260434Z 15010KT 26/13 A3008 RMK A01 T02600132  RH  045%=      5-min Rain = 0
KHO1 260435Z 15008KT 26/13 A3008 RMK A01 T02590131  RH  045%=      5-min Rain = 0
KHO1 260436Z 15011KT 26/13 A3008 RMK A01 T02580132  RH  046%=      5-min Rain = 0
KHO1 260437Z 15009KT 26/13 A3008 RMK A01 T02590132  RH  046%=      5-min Rain = 0
KHO1 260438Z 15012KT 26/13 A3008 RMK A01 T02590132  RH  045%=      5-min Rain = 0
KHO1 260439Z 15010KT 26/13 A3008 RMK A01 T02590132  RH  045%=      5-min Rain = 0
KHO1 260440Z 15012KT 26/13 A3008 RMK A01 T02590132  RH  045%=      5-min Rain = 0
KHO1 260441Z 15011KT 26/13 A3008 RMK A01 T02590132  RH  045%=      5-min Rain = 0
KHO1 260442Z 15011KT 26/13 A3008 RMK A01 T02580132  RH  045%=      5-min Rain = 0
KHO1 260443Z 15010KT 26/13 A3008 RMK A01 T02580132  RH  046%=      5-min Rain = 0
KHO1 260444Z 15011KT 26/13 A3008 RMK A01 T02580131  RH  045%=      5-min Rain = 0
KHO1 260445Z 15012KT 26/13 A3008 RMK A01 T02580131  RH  045%=      5-min Rain = 0
KHO1 260446Z 15010KT 26/13 A3008 RMK A01 T02580131  RH  045%=      5-min Rain = 0
KHO1 260447Z 15009KT 26/13 A3008 RMK A01 T02580131  RH  045%=      5-min Rain = 0
KHO1 260448Z 16010KT 26/13 A3009 RMK A01 T02570131  RH  046%=      5-min Rain = 0
KHO1 260449Z 16010KT 26/13 A3009 RMK A01 T02570131  RH  046%=      5-min Rain = 0
KHO1 260450Z 16010KT 26/13 A3009 RMK A01 T02560131  RH  046%=      5-min Rain = 0
KHO1 260451Z 16009KT 26/13 A3009 RMK A01 T02560131  RH  046%=      5-min Rain = 0
KHO1 260452Z 16010KT 26/13 A3009 RMK A01 T02550130  RH  046%=      5-min Rain = 0
KHO1 260453Z 16010KT 25/13 A3009 RMK A01 T02540130  RH  046%=      5-min Rain = 0
KHO1 260454Z 16009KT 25/13 A3009 RMK A01 T02540130  RH  046%=      5-min Rain = 0
KHO1 260455Z 16013KT 26/13 A3009 RMK A01 T02550127  RH  045%=      5-min Rain = 0
KHO1 260456Z 15012KT 26/13 A3009 RMK A01 T02560128  RH  045%=      5-min Rain = 0
KHO1 260457Z 15011KT 26/13 A3009 RMK A01 T02550127  RH  045%=      5-min Rain = 0
KHO1 260458Z 15011G16KT 26/13 A3009 RMK A01 T02550127  RH  045%=      5-min Rain = 0
KHO1 260459Z 15013KT 26/13 A3009 RMK A01 T02560126  RH  044%=      5-min Rain = 0

Page generated in 0.1706 seconds.